<?xml version="1.0" encoding="UTF-8" standalone="no" ?>
<gpx xmlns="http://www.topografix.com/GPX/1/1" xmlns:xsi="http://www.w3.org/2001/XMLSchema-instance" xsi:schemaLocation="http://www.topografix.com/GPX/1/1 http://www.topografix.com/GPX/1/1/gpx.xsd" version="1.1" creator="VisuGPX - https://www.visugpx.com">
  <metadata>
    <name>Autour de Piegon</name>
    <desc><![CDATA[Balade autour de Piegon dans la Drôme]]></desc>
  </metadata>
  <trk>
    <name><![CDATA[2017-10-02 14:38:34]]></name>
    <trkseg>
      <trkpt lat="44.30172" lon="5.12688">
        <ele>361.59</ele>
        <time>2017-10-02T07:30:21Z</time>
      </trkpt>
      <trkpt lat="44.30172" lon="5.12688">
        <ele>361.59</ele>
        <time>2017-10-02T07:30:22Z</time>
      </trkpt>
      <trkpt lat="44.30172" lon="5.12687">
        <ele>347.17</ele>
        <time>2017-10-02T07:30:25Z</time>
      </trkpt>
      <trkpt lat="44.30171" lon="5.12687">
        <ele>347.17</ele>
        <time>2017-10-02T07:30:26Z</time>
      </trkpt>
      <trkpt lat="44.30171" lon="5.12687">
        <ele>347.17</ele>
        <time>2017-10-02T07:30:50Z</time>
      </trkpt>
      <trkpt lat="44.30169" lon="5.12684">
        <ele>347.17</ele>
        <time>2017-10-02T07:31:05Z</time>
      </trkpt>
      <trkpt lat="44.3017" lon="5.12683">
        <ele>347.17</ele>
        <time>2017-10-02T07:31:26Z</time>
      </trkpt>
      <trkpt lat="44.3017" lon="5.12683">
        <ele>346.21</ele>
        <time>2017-10-02T07:31:30Z</time>
      </trkpt>
      <trkpt lat="44.30166" lon="5.12686">
        <ele>347.17</ele>
        <time>2017-10-02T07:32:15Z</time>
      </trkpt>
      <trkpt lat="44.30169" lon="5.12687">
        <ele>347.17</ele>
        <time>2017-10-02T07:32:38Z</time>
      </trkpt>
      <trkpt lat="44.30169" lon="5.12687">
        <ele>347.17</ele>
        <time>2017-10-02T07:33:03Z</time>
      </trkpt>
      <trkpt lat="44.30169" lon="5.12687">
        <ele>347.17</ele>
        <time>2017-10-02T07:33:06Z</time>
      </trkpt>
      <trkpt lat="44.3017" lon="5.12684">
        <ele>349.1</ele>
        <time>2017-10-02T07:33:08Z</time>
      </trkpt>
      <trkpt lat="44.3016" lon="5.12687">
        <ele>347.17</ele>
        <time>2017-10-02T07:33:19Z</time>
      </trkpt>
      <trkpt lat="44.30142" lon="5.12685">
        <ele>347.17</ele>
        <time>2017-10-02T07:33:37Z</time>
      </trkpt>
      <trkpt lat="44.30134" lon="5.12687">
        <ele>347.17</ele>
        <time>2017-10-02T07:33:46Z</time>
      </trkpt>
      <trkpt lat="44.30121" lon="5.12694">
        <ele>347.17</ele>
        <time>2017-10-02T07:34:03Z</time>
      </trkpt>
      <trkpt lat="44.30115" lon="5.12702">
        <ele>347.17</ele>
        <time>2017-10-02T07:34:17Z</time>
      </trkpt>
      <trkpt lat="44.30112" lon="5.12715">
        <ele>347.17</ele>
        <time>2017-10-02T07:34:34Z</time>
      </trkpt>
      <trkpt lat="44.30112" lon="5.12716">
        <ele>347.65</ele>
        <time>2017-10-02T07:34:35Z</time>
      </trkpt>
      <trkpt lat="44.30107" lon="5.12722">
        <ele>348.62</ele>
        <time>2017-10-02T07:34:45Z</time>
      </trkpt>
      <trkpt lat="44.30103" lon="5.12742">
        <ele>349.1</ele>
        <time>2017-10-02T07:35:03Z</time>
      </trkpt>
      <trkpt lat="44.301" lon="5.12764">
        <ele>351.02</ele>
        <time>2017-10-02T07:35:21Z</time>
      </trkpt>
      <trkpt lat="44.30096" lon="5.12779">
        <ele>352.94</ele>
        <time>2017-10-02T07:35:36Z</time>
      </trkpt>
      <trkpt lat="44.3009" lon="5.12796">
        <ele>354.86</ele>
        <time>2017-10-02T07:35:52Z</time>
      </trkpt>
      <trkpt lat="44.30087" lon="5.12807">
        <ele>355.34</ele>
        <time>2017-10-02T07:36:08Z</time>
      </trkpt>
      <trkpt lat="44.30073" lon="5.12825">
        <ele>356.79</ele>
        <time>2017-10-02T07:36:23Z</time>
      </trkpt>
      <trkpt lat="44.30064" lon="5.12833">
        <ele>361.11</ele>
        <time>2017-10-02T07:36:31Z</time>
      </trkpt>
      <trkpt lat="44.30065" lon="5.12834">
        <ele>361.11</ele>
        <time>2017-10-02T07:36:32Z</time>
      </trkpt>
      <trkpt lat="44.30064" lon="5.12834">
        <ele>358.23</ele>
        <time>2017-10-02T07:36:34Z</time>
      </trkpt>
      <trkpt lat="44.30062" lon="5.12841">
        <ele>359.67</ele>
        <time>2017-10-02T07:36:46Z</time>
      </trkpt>
      <trkpt lat="44.30069" lon="5.1284">
        <ele>361.59</ele>
        <time>2017-10-02T07:37:00Z</time>
      </trkpt>
      <trkpt lat="44.30073" lon="5.12838">
        <ele>362.07</ele>
        <time>2017-10-02T07:37:21Z</time>
      </trkpt>
      <trkpt lat="44.30084" lon="5.12834">
        <ele>364</ele>
        <time>2017-10-02T07:37:34Z</time>
      </trkpt>
      <trkpt lat="44.30096" lon="5.12828">
        <ele>366.4</ele>
        <time>2017-10-02T07:37:50Z</time>
      </trkpt>
      <trkpt lat="44.30109" lon="5.12824">
        <ele>369.28</ele>
        <time>2017-10-02T07:38:07Z</time>
      </trkpt>
      <trkpt lat="44.30123" lon="5.12819">
        <ele>371.69</ele>
        <time>2017-10-02T07:38:23Z</time>
      </trkpt>
      <trkpt lat="44.30137" lon="5.12814">
        <ele>374.09</ele>
        <time>2017-10-02T07:38:38Z</time>
      </trkpt>
      <trkpt lat="44.30147" lon="5.12819">
        <ele>376.01</ele>
        <time>2017-10-02T07:38:50Z</time>
      </trkpt>
      <trkpt lat="44.30148" lon="5.12819">
        <ele>376.01</ele>
        <time>2017-10-02T07:38:51Z</time>
      </trkpt>
      <trkpt lat="44.30152" lon="5.12829">
        <ele>376.01</ele>
        <time>2017-10-02T07:39:03Z</time>
      </trkpt>
      <trkpt lat="44.30151" lon="5.12831">
        <ele>376.01</ele>
        <time>2017-10-02T07:39:04Z</time>
      </trkpt>
      <trkpt lat="44.30146" lon="5.12854">
        <ele>376.49</ele>
        <time>2017-10-02T07:39:22Z</time>
      </trkpt>
      <trkpt lat="44.3014" lon="5.1288">
        <ele>378.42</ele>
        <time>2017-10-02T07:39:42Z</time>
      </trkpt>
      <trkpt lat="44.30139" lon="5.12908">
        <ele>380.34</ele>
        <time>2017-10-02T07:40:03Z</time>
      </trkpt>
      <trkpt lat="44.30137" lon="5.12933">
        <ele>381.78</ele>
        <time>2017-10-02T07:40:21Z</time>
      </trkpt>
      <trkpt lat="44.30136" lon="5.12963">
        <ele>383.22</ele>
        <time>2017-10-02T07:40:41Z</time>
      </trkpt>
      <trkpt lat="44.30141" lon="5.12989">
        <ele>385.15</ele>
        <time>2017-10-02T07:41:01Z</time>
      </trkpt>
      <trkpt lat="44.30147" lon="5.13">
        <ele>385.63</ele>
        <time>2017-10-02T07:41:21Z</time>
      </trkpt>
      <trkpt lat="44.30157" lon="5.13018">
        <ele>387.07</ele>
        <time>2017-10-02T07:41:40Z</time>
      </trkpt>
      <trkpt lat="44.30161" lon="5.13024">
        <ele>387.55</ele>
        <time>2017-10-02T07:41:47Z</time>
      </trkpt>
      <trkpt lat="44.30173" lon="5.13038">
        <ele>389.95</ele>
        <time>2017-10-02T07:42:06Z</time>
      </trkpt>
      <trkpt lat="44.30185" lon="5.13055">
        <ele>392.36</ele>
        <time>2017-10-02T07:42:24Z</time>
      </trkpt>
      <trkpt lat="44.30194" lon="5.13075">
        <ele>395.24</ele>
        <time>2017-10-02T07:42:43Z</time>
      </trkpt>
      <trkpt lat="44.30206" lon="5.13092">
        <ele>397.16</ele>
        <time>2017-10-02T07:43:01Z</time>
      </trkpt>
      <trkpt lat="44.30214" lon="5.13102">
        <ele>395.72</ele>
        <time>2017-10-02T07:43:17Z</time>
      </trkpt>
      <trkpt lat="44.30216" lon="5.13104">
        <ele>392.84</ele>
        <time>2017-10-02T07:43:19Z</time>
      </trkpt>
      <trkpt lat="44.30217" lon="5.13106">
        <ele>398.12</ele>
        <time>2017-10-02T07:43:20Z</time>
      </trkpt>
      <trkpt lat="44.30219" lon="5.1311">
        <ele>395.24</ele>
        <time>2017-10-02T07:43:25Z</time>
      </trkpt>
      <trkpt lat="44.30229" lon="5.1313">
        <ele>392.84</ele>
        <time>2017-10-02T07:43:43Z</time>
      </trkpt>
      <trkpt lat="44.30238" lon="5.13147">
        <ele>390.91</ele>
        <time>2017-10-02T07:43:59Z</time>
      </trkpt>
      <trkpt lat="44.30246" lon="5.13171">
        <ele>388.03</ele>
        <time>2017-10-02T07:44:21Z</time>
      </trkpt>
      <trkpt lat="44.30248" lon="5.13175">
        <ele>387.55</ele>
        <time>2017-10-02T07:44:25Z</time>
      </trkpt>
      <trkpt lat="44.30258" lon="5.132">
        <ele>384.18</ele>
        <time>2017-10-02T07:44:46Z</time>
      </trkpt>
      <trkpt lat="44.30271" lon="5.13217">
        <ele>381.78</ele>
        <time>2017-10-02T07:45:04Z</time>
      </trkpt>
      <trkpt lat="44.30271" lon="5.13219">
        <ele>385.63</ele>
        <time>2017-10-02T07:45:05Z</time>
      </trkpt>
      <trkpt lat="44.30274" lon="5.13218">
        <ele>383.7</ele>
        <time>2017-10-02T07:45:15Z</time>
      </trkpt>
      <trkpt lat="44.30292" lon="5.1324">
        <ele>383.7</ele>
        <time>2017-10-02T07:45:37Z</time>
      </trkpt>
      <trkpt lat="44.30308" lon="5.13259">
        <ele>383.7</ele>
        <time>2017-10-02T07:45:57Z</time>
      </trkpt>
      <trkpt lat="44.30326" lon="5.1328">
        <ele>383.7</ele>
        <time>2017-10-02T07:46:19Z</time>
      </trkpt>
      <trkpt lat="44.30342" lon="5.13301">
        <ele>385.15</ele>
        <time>2017-10-02T07:46:39Z</time>
      </trkpt>
      <trkpt lat="44.30356" lon="5.13323">
        <ele>385.63</ele>
        <time>2017-10-02T07:46:59Z</time>
      </trkpt>
      <trkpt lat="44.30372" lon="5.13348">
        <ele>386.59</ele>
        <time>2017-10-02T07:47:19Z</time>
      </trkpt>
      <trkpt lat="44.3039" lon="5.13371">
        <ele>388.03</ele>
        <time>2017-10-02T07:47:41Z</time>
      </trkpt>
      <trkpt lat="44.30408" lon="5.13394">
        <ele>388.99</ele>
        <time>2017-10-02T07:48:03Z</time>
      </trkpt>
      <trkpt lat="44.30429" lon="5.13422">
        <ele>389.95</ele>
        <time>2017-10-02T07:48:29Z</time>
      </trkpt>
      <trkpt lat="44.30442" lon="5.13437">
        <ele>389.95</ele>
        <time>2017-10-02T07:48:47Z</time>
      </trkpt>
      <trkpt lat="44.30459" lon="5.13461">
        <ele>390.43</ele>
        <time>2017-10-02T07:49:09Z</time>
      </trkpt>
      <trkpt lat="44.30476" lon="5.13481">
        <ele>390.43</ele>
        <time>2017-10-02T07:49:28Z</time>
      </trkpt>
      <trkpt lat="44.30492" lon="5.13505">
        <ele>390.91</ele>
        <time>2017-10-02T07:49:49Z</time>
      </trkpt>
      <trkpt lat="44.30505" lon="5.13527">
        <ele>391.87</ele>
        <time>2017-10-02T07:50:08Z</time>
      </trkpt>
      <trkpt lat="44.30513" lon="5.13551">
        <ele>392.84</ele>
        <time>2017-10-02T07:50:25Z</time>
      </trkpt>
      <trkpt lat="44.3051" lon="5.13581">
        <ele>394.28</ele>
        <time>2017-10-02T07:50:46Z</time>
      </trkpt>
      <trkpt lat="44.30507" lon="5.13613">
        <ele>395.24</ele>
        <time>2017-10-02T07:51:07Z</time>
      </trkpt>
      <trkpt lat="44.30508" lon="5.13615">
        <ele>395.24</ele>
        <time>2017-10-02T07:51:08Z</time>
      </trkpt>
      <trkpt lat="44.30521" lon="5.1364">
        <ele>396.2</ele>
        <time>2017-10-02T07:51:28Z</time>
      </trkpt>
      <trkpt lat="44.30532" lon="5.13661">
        <ele>396.68</ele>
        <time>2017-10-02T07:51:49Z</time>
      </trkpt>
      <trkpt lat="44.30531" lon="5.13661">
        <ele>397.16</ele>
        <time>2017-10-02T07:52:11Z</time>
      </trkpt>
      <trkpt lat="44.30531" lon="5.13659">
        <ele>395.72</ele>
        <time>2017-10-02T07:52:14Z</time>
      </trkpt>
      <trkpt lat="44.30528" lon="5.13657">
        <ele>395.24</ele>
        <time>2017-10-02T07:52:51Z</time>
      </trkpt>
      <trkpt lat="44.30526" lon="5.13655">
        <ele>395.72</ele>
        <time>2017-10-02T07:53:20Z</time>
      </trkpt>
      <trkpt lat="44.30527" lon="5.13654">
        <ele>395.72</ele>
        <time>2017-10-02T07:53:52Z</time>
      </trkpt>
      <trkpt lat="44.30527" lon="5.13653">
        <ele>397.16</ele>
        <time>2017-10-02T07:54:21Z</time>
      </trkpt>
      <trkpt lat="44.30528" lon="5.13655">
        <ele>396.2</ele>
        <time>2017-10-02T07:54:38Z</time>
      </trkpt>
      <trkpt lat="44.30527" lon="5.13658">
        <ele>396.68</ele>
        <time>2017-10-02T07:54:53Z</time>
      </trkpt>
      <trkpt lat="44.30528" lon="5.13663">
        <ele>396.68</ele>
        <time>2017-10-02T07:55:11Z</time>
      </trkpt>
      <trkpt lat="44.30535" lon="5.13672">
        <ele>396.68</ele>
        <time>2017-10-02T07:55:26Z</time>
      </trkpt>
      <trkpt lat="44.30545" lon="5.13689">
        <ele>398.6</ele>
        <time>2017-10-02T07:55:45Z</time>
      </trkpt>
      <trkpt lat="44.30546" lon="5.13692">
        <ele>398.6</ele>
        <time>2017-10-02T07:55:47Z</time>
      </trkpt>
      <trkpt lat="44.30553" lon="5.13702">
        <ele>399.08</ele>
        <time>2017-10-02T07:55:58Z</time>
      </trkpt>
      <trkpt lat="44.30565" lon="5.13718">
        <ele>400.05</ele>
        <time>2017-10-02T07:56:16Z</time>
      </trkpt>
      <trkpt lat="44.30577" lon="5.13731">
        <ele>401.01</ele>
        <time>2017-10-02T07:56:34Z</time>
      </trkpt>
      <trkpt lat="44.30595" lon="5.1375">
        <ele>401.97</ele>
        <time>2017-10-02T07:56:55Z</time>
      </trkpt>
      <trkpt lat="44.30613" lon="5.1377">
        <ele>402.45</ele>
        <time>2017-10-02T07:57:15Z</time>
      </trkpt>
      <trkpt lat="44.30625" lon="5.13786">
        <ele>403.41</ele>
        <time>2017-10-02T07:57:31Z</time>
      </trkpt>
      <trkpt lat="44.3064" lon="5.13807">
        <ele>404.85</ele>
        <time>2017-10-02T07:57:49Z</time>
      </trkpt>
      <trkpt lat="44.30643" lon="5.13813">
        <ele>404.85</ele>
        <time>2017-10-02T07:57:54Z</time>
      </trkpt>
      <trkpt lat="44.30646" lon="5.13832">
        <ele>405.33</ele>
        <time>2017-10-02T07:58:07Z</time>
      </trkpt>
      <trkpt lat="44.30647" lon="5.13868">
        <ele>407.26</ele>
        <time>2017-10-02T07:58:30Z</time>
      </trkpt>
      <trkpt lat="44.30646" lon="5.13895">
        <ele>408.22</ele>
        <time>2017-10-02T07:58:50Z</time>
      </trkpt>
      <trkpt lat="44.30645" lon="5.13893">
        <ele>408.7</ele>
        <time>2017-10-02T07:59:04Z</time>
      </trkpt>
      <trkpt lat="44.30643" lon="5.13901">
        <ele>408.7</ele>
        <time>2017-10-02T07:59:24Z</time>
      </trkpt>
      <trkpt lat="44.30642" lon="5.13903">
        <ele>409.66</ele>
        <time>2017-10-02T07:59:27Z</time>
      </trkpt>
      <trkpt lat="44.30636" lon="5.13915">
        <ele>412.54</ele>
        <time>2017-10-02T07:59:44Z</time>
      </trkpt>
      <trkpt lat="44.30626" lon="5.13915">
        <ele>414.47</ele>
        <time>2017-10-02T08:00:00Z</time>
      </trkpt>
      <trkpt lat="44.30617" lon="5.13919">
        <ele>416.39</ele>
        <time>2017-10-02T08:00:17Z</time>
      </trkpt>
      <trkpt lat="44.30612" lon="5.13927">
        <ele>418.31</ele>
        <time>2017-10-02T08:00:34Z</time>
      </trkpt>
      <trkpt lat="44.30605" lon="5.13929">
        <ele>420.71</ele>
        <time>2017-10-02T08:00:52Z</time>
      </trkpt>
      <trkpt lat="44.30602" lon="5.13931">
        <ele>422.64</ele>
        <time>2017-10-02T08:01:07Z</time>
      </trkpt>
      <trkpt lat="44.30596" lon="5.13938">
        <ele>424.56</ele>
        <time>2017-10-02T08:01:24Z</time>
      </trkpt>
      <trkpt lat="44.3059" lon="5.13938">
        <ele>426.96</ele>
        <time>2017-10-02T08:01:39Z</time>
      </trkpt>
      <trkpt lat="44.30584" lon="5.1394">
        <ele>428.89</ele>
        <time>2017-10-02T08:01:55Z</time>
      </trkpt>
      <trkpt lat="44.30581" lon="5.13945">
        <ele>431.29</ele>
        <time>2017-10-02T08:02:12Z</time>
      </trkpt>
      <trkpt lat="44.30575" lon="5.13943">
        <ele>434.17</ele>
        <time>2017-10-02T08:02:29Z</time>
      </trkpt>
      <trkpt lat="44.30573" lon="5.13943">
        <ele>435.61</ele>
        <time>2017-10-02T08:02:44Z</time>
      </trkpt>
      <trkpt lat="44.30568" lon="5.13943">
        <ele>437.06</ele>
        <time>2017-10-02T08:03:01Z</time>
      </trkpt>
      <trkpt lat="44.30566" lon="5.13944">
        <ele>438.5</ele>
        <time>2017-10-02T08:03:15Z</time>
      </trkpt>
      <trkpt lat="44.30562" lon="5.13943">
        <ele>439.94</ele>
        <time>2017-10-02T08:03:31Z</time>
      </trkpt>
      <trkpt lat="44.3056" lon="5.13945">
        <ele>442.34</ele>
        <time>2017-10-02T08:03:44Z</time>
      </trkpt>
      <trkpt lat="44.30556" lon="5.13948">
        <ele>444.27</ele>
        <time>2017-10-02T08:03:59Z</time>
      </trkpt>
      <trkpt lat="44.3055" lon="5.13949">
        <ele>446.19</ele>
        <time>2017-10-02T08:04:17Z</time>
      </trkpt>
      <trkpt lat="44.30545" lon="5.13945">
        <ele>448.59</ele>
        <time>2017-10-02T08:04:32Z</time>
      </trkpt>
      <trkpt lat="44.3054" lon="5.13948">
        <ele>450.52</ele>
        <time>2017-10-02T08:04:46Z</time>
      </trkpt>
      <trkpt lat="44.30536" lon="5.13947">
        <ele>452.44</ele>
        <time>2017-10-02T08:04:59Z</time>
      </trkpt>
      <trkpt lat="44.30529" lon="5.13947">
        <ele>453.88</ele>
        <time>2017-10-02T08:05:13Z</time>
      </trkpt>
      <trkpt lat="44.3052" lon="5.1395">
        <ele>455.8</ele>
        <time>2017-10-02T08:05:28Z</time>
      </trkpt>
      <trkpt lat="44.30516" lon="5.13953">
        <ele>456.76</ele>
        <time>2017-10-02T08:05:46Z</time>
      </trkpt>
      <trkpt lat="44.30515" lon="5.13951">
        <ele>456.76</ele>
        <time>2017-10-02T08:06:11Z</time>
      </trkpt>
      <trkpt lat="44.30512" lon="5.13949">
        <ele>456.76</ele>
        <time>2017-10-02T08:06:38Z</time>
      </trkpt>
      <trkpt lat="44.3051" lon="5.1395">
        <ele>456.76</ele>
        <time>2017-10-02T08:07:05Z</time>
      </trkpt>
      <trkpt lat="44.3051" lon="5.13947">
        <ele>457.24</ele>
        <time>2017-10-02T08:07:39Z</time>
      </trkpt>
      <trkpt lat="44.3051" lon="5.13948">
        <ele>457.72</ele>
        <time>2017-10-02T08:08:05Z</time>
      </trkpt>
      <trkpt lat="44.30512" lon="5.13949">
        <ele>457.72</ele>
        <time>2017-10-02T08:08:31Z</time>
      </trkpt>
      <trkpt lat="44.30512" lon="5.1395">
        <ele>457.72</ele>
        <time>2017-10-02T08:08:53Z</time>
      </trkpt>
      <trkpt lat="44.30513" lon="5.13952">
        <ele>457.72</ele>
        <time>2017-10-02T08:09:13Z</time>
      </trkpt>
      <trkpt lat="44.30514" lon="5.13953">
        <ele>457.72</ele>
        <time>2017-10-02T08:09:36Z</time>
      </trkpt>
      <trkpt lat="44.30514" lon="5.13952">
        <ele>457.72</ele>
        <time>2017-10-02T08:09:50Z</time>
      </trkpt>
      <trkpt lat="44.30515" lon="5.13951">
        <ele>457.72</ele>
        <time>2017-10-02T08:10:10Z</time>
      </trkpt>
      <trkpt lat="44.30513" lon="5.13951">
        <ele>457.72</ele>
        <time>2017-10-02T08:10:37Z</time>
      </trkpt>
      <trkpt lat="44.30513" lon="5.13951">
        <ele>457.72</ele>
        <time>2017-10-02T08:11:04Z</time>
      </trkpt>
      <trkpt lat="44.30513" lon="5.13951">
        <ele>457.72</ele>
        <time>2017-10-02T08:11:29Z</time>
      </trkpt>
      <trkpt lat="44.30512" lon="5.13949">
        <ele>457.72</ele>
        <time>2017-10-02T08:12:00Z</time>
      </trkpt>
      <trkpt lat="44.30513" lon="5.13949">
        <ele>457.72</ele>
        <time>2017-10-02T08:12:26Z</time>
      </trkpt>
      <trkpt lat="44.3051" lon="5.13955">
        <ele>457.72</ele>
        <time>2017-10-02T08:12:46Z</time>
      </trkpt>
      <trkpt lat="44.30503" lon="5.13963">
        <ele>458.21</ele>
        <time>2017-10-02T08:13:01Z</time>
      </trkpt>
      <trkpt lat="44.30501" lon="5.13963">
        <ele>459.17</ele>
        <time>2017-10-02T08:13:03Z</time>
      </trkpt>
      <trkpt lat="44.30493" lon="5.13971">
        <ele>461.09</ele>
        <time>2017-10-02T08:13:17Z</time>
      </trkpt>
      <trkpt lat="44.30485" lon="5.13976">
        <ele>462.53</ele>
        <time>2017-10-02T08:13:31Z</time>
      </trkpt>
      <trkpt lat="44.30477" lon="5.1398">
        <ele>464.45</ele>
        <time>2017-10-02T08:13:45Z</time>
      </trkpt>
      <trkpt lat="44.30468" lon="5.13983">
        <ele>465.9</ele>
        <time>2017-10-02T08:14:01Z</time>
      </trkpt>
      <trkpt lat="44.30456" lon="5.13989">
        <ele>466.86</ele>
        <time>2017-10-02T08:14:16Z</time>
      </trkpt>
      <trkpt lat="44.30443" lon="5.13997">
        <ele>468.78</ele>
        <time>2017-10-02T08:14:31Z</time>
      </trkpt>
      <trkpt lat="44.3043" lon="5.14004">
        <ele>470.22</ele>
        <time>2017-10-02T08:14:47Z</time>
      </trkpt>
      <trkpt lat="44.30422" lon="5.14008">
        <ele>470.22</ele>
        <time>2017-10-02T08:14:57Z</time>
      </trkpt>
      <trkpt lat="44.30409" lon="5.14018">
        <ele>470.22</ele>
        <time>2017-10-02T08:15:13Z</time>
      </trkpt>
      <trkpt lat="44.30393" lon="5.14028">
        <ele>470.22</ele>
        <time>2017-10-02T08:15:31Z</time>
      </trkpt>
      <trkpt lat="44.30382" lon="5.14041">
        <ele>471.66</ele>
        <time>2017-10-02T08:15:47Z</time>
      </trkpt>
      <trkpt lat="44.30372" lon="5.14046">
        <ele>473.11</ele>
        <time>2017-10-02T08:16:01Z</time>
      </trkpt>
      <trkpt lat="44.30362" lon="5.14055">
        <ele>473.59</ele>
        <time>2017-10-02T08:16:17Z</time>
      </trkpt>
      <trkpt lat="44.30353" lon="5.14068">
        <ele>475.03</ele>
        <time>2017-10-02T08:16:32Z</time>
      </trkpt>
      <trkpt lat="44.30341" lon="5.14079">
        <ele>475.51</ele>
        <time>2017-10-02T08:16:48Z</time>
      </trkpt>
      <trkpt lat="44.30329" lon="5.14092">
        <ele>476.47</ele>
        <time>2017-10-02T08:17:05Z</time>
      </trkpt>
      <trkpt lat="44.30319" lon="5.14103">
        <ele>476.95</ele>
        <time>2017-10-02T08:17:20Z</time>
      </trkpt>
      <trkpt lat="44.30302" lon="5.14118">
        <ele>476.47</ele>
        <time>2017-10-02T08:17:41Z</time>
      </trkpt>
      <trkpt lat="44.3029" lon="5.14132">
        <ele>475.51</ele>
        <time>2017-10-02T08:17:58Z</time>
      </trkpt>
      <trkpt lat="44.30283" lon="5.14141">
        <ele>473.11</ele>
        <time>2017-10-02T08:18:12Z</time>
      </trkpt>
      <trkpt lat="44.30274" lon="5.14149">
        <ele>471.66</ele>
        <time>2017-10-02T08:18:27Z</time>
      </trkpt>
      <trkpt lat="44.30265" lon="5.14156">
        <ele>469.74</ele>
        <time>2017-10-02T08:18:43Z</time>
      </trkpt>
      <trkpt lat="44.30261" lon="5.14168">
        <ele>468.3</ele>
        <time>2017-10-02T08:18:59Z</time>
      </trkpt>
      <trkpt lat="44.30255" lon="5.14179">
        <ele>466.86</ele>
        <time>2017-10-02T08:19:15Z</time>
      </trkpt>
      <trkpt lat="44.30251" lon="5.14189">
        <ele>465.42</ele>
        <time>2017-10-02T08:19:30Z</time>
      </trkpt>
      <trkpt lat="44.3025" lon="5.14207">
        <ele>464.45</ele>
        <time>2017-10-02T08:19:45Z</time>
      </trkpt>
      <trkpt lat="44.30247" lon="5.14209">
        <ele>464.45</ele>
        <time>2017-10-02T08:19:59Z</time>
      </trkpt>
      <trkpt lat="44.30253" lon="5.14232">
        <ele>464.45</ele>
        <time>2017-10-02T08:20:16Z</time>
      </trkpt>
      <trkpt lat="44.30255" lon="5.14237">
        <ele>465.9</ele>
        <time>2017-10-02T08:20:35Z</time>
      </trkpt>
      <trkpt lat="44.3026" lon="5.14256">
        <ele>467.34</ele>
        <time>2017-10-02T08:20:53Z</time>
      </trkpt>
      <trkpt lat="44.30268" lon="5.14271">
        <ele>469.26</ele>
        <time>2017-10-02T08:21:10Z</time>
      </trkpt>
      <trkpt lat="44.30274" lon="5.14285">
        <ele>471.66</ele>
        <time>2017-10-02T08:21:26Z</time>
      </trkpt>
      <trkpt lat="44.30276" lon="5.14303">
        <ele>474.07</ele>
        <time>2017-10-02T08:21:43Z</time>
      </trkpt>
      <trkpt lat="44.30274" lon="5.14321">
        <ele>475.51</ele>
        <time>2017-10-02T08:21:58Z</time>
      </trkpt>
      <trkpt lat="44.3027" lon="5.14344">
        <ele>476.95</ele>
        <time>2017-10-02T08:22:17Z</time>
      </trkpt>
      <trkpt lat="44.30268" lon="5.14369">
        <ele>478.39</ele>
        <time>2017-10-02T08:22:36Z</time>
      </trkpt>
      <trkpt lat="44.30266" lon="5.14392">
        <ele>480.32</ele>
        <time>2017-10-02T08:22:53Z</time>
      </trkpt>
      <trkpt lat="44.30263" lon="5.14415">
        <ele>481.76</ele>
        <time>2017-10-02T08:23:11Z</time>
      </trkpt>
      <trkpt lat="44.30261" lon="5.14442">
        <ele>483.68</ele>
        <time>2017-10-02T08:23:30Z</time>
      </trkpt>
      <trkpt lat="44.3026" lon="5.14459">
        <ele>484.64</ele>
        <time>2017-10-02T08:23:42Z</time>
      </trkpt>
      <trkpt lat="44.3026" lon="5.14485">
        <ele>485.6</ele>
        <time>2017-10-02T08:24:00Z</time>
      </trkpt>
      <trkpt lat="44.30259" lon="5.14515">
        <ele>487.53</ele>
        <time>2017-10-02T08:24:20Z</time>
      </trkpt>
      <trkpt lat="44.30258" lon="5.14536">
        <ele>488.01</ele>
        <time>2017-10-02T08:24:39Z</time>
      </trkpt>
      <trkpt lat="44.30258" lon="5.14538">
        <ele>488.01</ele>
        <time>2017-10-02T08:24:58Z</time>
      </trkpt>
      <trkpt lat="44.30256" lon="5.14538">
        <ele>488.49</ele>
        <time>2017-10-02T08:25:15Z</time>
      </trkpt>
      <trkpt lat="44.30256" lon="5.1454">
        <ele>487.05</ele>
        <time>2017-10-02T08:25:23Z</time>
      </trkpt>
      <trkpt lat="44.30258" lon="5.1454">
        <ele>487.05</ele>
        <time>2017-10-02T08:25:52Z</time>
      </trkpt>
      <trkpt lat="44.30256" lon="5.14538">
        <ele>487.05</ele>
        <time>2017-10-02T08:26:15Z</time>
      </trkpt>
      <trkpt lat="44.30255" lon="5.14538">
        <ele>486.56</ele>
        <time>2017-10-02T08:26:49Z</time>
      </trkpt>
      <trkpt lat="44.30255" lon="5.14537">
        <ele>487.05</ele>
        <time>2017-10-02T08:27:27Z</time>
      </trkpt>
      <trkpt lat="44.30254" lon="5.14537">
        <ele>487.05</ele>
        <time>2017-10-02T08:28:06Z</time>
      </trkpt>
      <trkpt lat="44.30254" lon="5.14537">
        <ele>487.05</ele>
        <time>2017-10-02T08:28:32Z</time>
      </trkpt>
      <trkpt lat="44.30257" lon="5.14538">
        <ele>487.05</ele>
        <time>2017-10-02T08:29:05Z</time>
      </trkpt>
      <trkpt lat="44.30258" lon="5.14537">
        <ele>487.05</ele>
        <time>2017-10-02T08:29:33Z</time>
      </trkpt>
      <trkpt lat="44.30259" lon="5.14538">
        <ele>487.05</ele>
        <time>2017-10-02T08:30:08Z</time>
      </trkpt>
      <trkpt lat="44.30257" lon="5.14537">
        <ele>487.05</ele>
        <time>2017-10-02T08:30:37Z</time>
      </trkpt>
      <trkpt lat="44.30257" lon="5.14537">
        <ele>487.53</ele>
        <time>2017-10-02T08:31:10Z</time>
      </trkpt>
      <trkpt lat="44.30256" lon="5.14538">
        <ele>487.53</ele>
        <time>2017-10-02T08:31:31Z</time>
      </trkpt>
      <trkpt lat="44.30256" lon="5.14538">
        <ele>487.53</ele>
        <time>2017-10-02T08:32:03Z</time>
      </trkpt>
      <trkpt lat="44.30256" lon="5.14538">
        <ele>487.53</ele>
        <time>2017-10-02T08:32:40Z</time>
      </trkpt>
      <trkpt lat="44.30255" lon="5.14538">
        <ele>487.53</ele>
        <time>2017-10-02T08:33:12Z</time>
      </trkpt>
      <trkpt lat="44.30255" lon="5.14537">
        <ele>487.53</ele>
        <time>2017-10-02T08:33:39Z</time>
      </trkpt>
      <trkpt lat="44.30257" lon="5.14538">
        <ele>489.93</ele>
        <time>2017-10-02T08:33:56Z</time>
      </trkpt>
      <trkpt lat="44.30258" lon="5.14539">
        <ele>488.49</ele>
        <time>2017-10-02T08:34:23Z</time>
      </trkpt>
      <trkpt lat="44.30256" lon="5.14537">
        <ele>488.49</ele>
        <time>2017-10-02T08:34:42Z</time>
      </trkpt>
      <trkpt lat="44.30256" lon="5.14537">
        <ele>488.49</ele>
        <time>2017-10-02T08:34:58Z</time>
      </trkpt>
      <trkpt lat="44.30256" lon="5.14536">
        <ele>488.49</ele>
        <time>2017-10-02T08:35:17Z</time>
      </trkpt>
      <trkpt lat="44.30256" lon="5.14537">
        <ele>488.49</ele>
        <time>2017-10-02T08:35:37Z</time>
      </trkpt>
      <trkpt lat="44.30256" lon="5.14538">
        <ele>488.49</ele>
        <time>2017-10-02T08:36:04Z</time>
      </trkpt>
      <trkpt lat="44.30256" lon="5.14538">
        <ele>488.49</ele>
        <time>2017-10-02T08:36:20Z</time>
      </trkpt>
      <trkpt lat="44.30257" lon="5.14539">
        <ele>488.49</ele>
        <time>2017-10-02T08:36:44Z</time>
      </trkpt>
      <trkpt lat="44.30257" lon="5.14542">
        <ele>488.01</ele>
        <time>2017-10-02T08:37:14Z</time>
      </trkpt>
      <trkpt lat="44.30257" lon="5.14541">
        <ele>488.01</ele>
        <time>2017-10-02T08:37:37Z</time>
      </trkpt>
      <trkpt lat="44.30257" lon="5.1454">
        <ele>488.97</ele>
        <time>2017-10-02T08:37:58Z</time>
      </trkpt>
      <trkpt lat="44.30258" lon="5.1454">
        <ele>488.97</ele>
        <time>2017-10-02T08:38:18Z</time>
      </trkpt>
      <trkpt lat="44.30257" lon="5.14539">
        <ele>488.97</ele>
        <time>2017-10-02T08:38:41Z</time>
      </trkpt>
      <trkpt lat="44.30256" lon="5.14538">
        <ele>488.97</ele>
        <time>2017-10-02T08:38:58Z</time>
      </trkpt>
      <trkpt lat="44.30256" lon="5.14537">
        <ele>488.97</ele>
        <time>2017-10-02T08:39:15Z</time>
      </trkpt>
      <trkpt lat="44.30256" lon="5.1454">
        <ele>481.76</ele>
        <time>2017-10-02T08:39:24Z</time>
      </trkpt>
      <trkpt lat="44.30256" lon="5.14539">
        <ele>487.53</ele>
        <time>2017-10-02T08:39:25Z</time>
      </trkpt>
      <trkpt lat="44.30258" lon="5.14538">
        <ele>492.81</ele>
        <time>2017-10-02T08:39:26Z</time>
      </trkpt>
      <trkpt lat="44.30259" lon="5.14538">
        <ele>488.97</ele>
        <time>2017-10-02T08:39:27Z</time>
      </trkpt>
      <trkpt lat="44.30261" lon="5.14538">
        <ele>488.01</ele>
        <time>2017-10-02T08:39:29Z</time>
      </trkpt>
      <trkpt lat="44.30261" lon="5.14538">
        <ele>488.97</ele>
        <time>2017-10-02T08:39:33Z</time>
      </trkpt>
      <trkpt lat="44.3026" lon="5.14537">
        <ele>487.05</ele>
        <time>2017-10-02T08:39:35Z</time>
      </trkpt>
      <trkpt lat="44.30255" lon="5.14538">
        <ele>489.93</ele>
        <time>2017-10-02T08:39:45Z</time>
      </trkpt>
      <trkpt lat="44.30254" lon="5.14543">
        <ele>488.01</ele>
        <time>2017-10-02T08:40:04Z</time>
      </trkpt>
      <trkpt lat="44.30254" lon="5.14542">
        <ele>488.97</ele>
        <time>2017-10-02T08:40:20Z</time>
      </trkpt>
      <trkpt lat="44.30251" lon="5.14543">
        <ele>488.01</ele>
        <time>2017-10-02T08:40:35Z</time>
      </trkpt>
      <trkpt lat="44.30253" lon="5.14545">
        <ele>489.45</ele>
        <time>2017-10-02T08:40:51Z</time>
      </trkpt>
      <trkpt lat="44.30253" lon="5.14545">
        <ele>489.45</ele>
        <time>2017-10-02T08:40:52Z</time>
      </trkpt>
      <trkpt lat="44.30255" lon="5.14546">
        <ele>489.45</ele>
        <time>2017-10-02T08:41:23Z</time>
      </trkpt>
      <trkpt lat="44.30255" lon="5.14547">
        <ele>489.45</ele>
        <time>2017-10-02T08:41:53Z</time>
      </trkpt>
      <trkpt lat="44.30255" lon="5.14547">
        <ele>489.45</ele>
        <time>2017-10-02T08:42:10Z</time>
      </trkpt>
      <trkpt lat="44.30255" lon="5.14546">
        <ele>489.45</ele>
        <time>2017-10-02T08:42:39Z</time>
      </trkpt>
      <trkpt lat="44.30255" lon="5.14545">
        <ele>489.45</ele>
        <time>2017-10-02T08:43:02Z</time>
      </trkpt>
      <trkpt lat="44.30254" lon="5.14545">
        <ele>489.45</ele>
        <time>2017-10-02T08:43:22Z</time>
      </trkpt>
      <trkpt lat="44.30254" lon="5.14546">
        <ele>489.45</ele>
        <time>2017-10-02T08:43:46Z</time>
      </trkpt>
      <trkpt lat="44.30248" lon="5.14558">
        <ele>489.45</ele>
        <time>2017-10-02T08:43:59Z</time>
      </trkpt>
      <trkpt lat="44.30244" lon="5.14576">
        <ele>490.89</ele>
        <time>2017-10-02T08:44:14Z</time>
      </trkpt>
      <trkpt lat="44.30245" lon="5.14595">
        <ele>492.33</ele>
        <time>2017-10-02T08:44:29Z</time>
      </trkpt>
      <trkpt lat="44.30248" lon="5.14614">
        <ele>494.26</ele>
        <time>2017-10-02T08:44:44Z</time>
      </trkpt>
      <trkpt lat="44.30254" lon="5.14634">
        <ele>496.18</ele>
        <time>2017-10-02T08:45:01Z</time>
      </trkpt>
      <trkpt lat="44.30261" lon="5.14655">
        <ele>498.1</ele>
        <time>2017-10-02T08:45:20Z</time>
      </trkpt>
      <trkpt lat="44.30267" lon="5.14676">
        <ele>500.5</ele>
        <time>2017-10-02T08:45:37Z</time>
      </trkpt>
      <trkpt lat="44.30272" lon="5.14693">
        <ele>501.95</ele>
        <time>2017-10-02T08:45:51Z</time>
      </trkpt>
      <trkpt lat="44.30273" lon="5.14699">
        <ele>505.31</ele>
        <time>2017-10-02T08:45:57Z</time>
      </trkpt>
      <trkpt lat="44.30275" lon="5.14703">
        <ele>502.91</ele>
        <time>2017-10-02T08:46:01Z</time>
      </trkpt>
      <trkpt lat="44.30284" lon="5.14725">
        <ele>504.35</ele>
        <time>2017-10-02T08:46:19Z</time>
      </trkpt>
      <trkpt lat="44.30287" lon="5.14735">
        <ele>504.35</ele>
        <time>2017-10-02T08:46:27Z</time>
      </trkpt>
      <trkpt lat="44.30289" lon="5.14739">
        <ele>504.35</ele>
        <time>2017-10-02T08:46:30Z</time>
      </trkpt>
      <trkpt lat="44.30298" lon="5.14759">
        <ele>503.39</ele>
        <time>2017-10-02T08:46:48Z</time>
      </trkpt>
      <trkpt lat="44.30308" lon="5.14784">
        <ele>501.46</ele>
        <time>2017-10-02T08:47:08Z</time>
      </trkpt>
      <trkpt lat="44.30308" lon="5.14792">
        <ele>501.46</ele>
        <time>2017-10-02T08:47:13Z</time>
      </trkpt>
      <trkpt lat="44.30308" lon="5.14794">
        <ele>501.46</ele>
        <time>2017-10-02T08:47:14Z</time>
      </trkpt>
      <trkpt lat="44.30308" lon="5.14795">
        <ele>501.46</ele>
        <time>2017-10-02T08:47:15Z</time>
      </trkpt>
      <trkpt lat="44.30311" lon="5.14818">
        <ele>500.98</ele>
        <time>2017-10-02T08:47:32Z</time>
      </trkpt>
      <trkpt lat="44.30314" lon="5.14842">
        <ele>500.98</ele>
        <time>2017-10-02T08:47:48Z</time>
      </trkpt>
      <trkpt lat="44.30318" lon="5.14864">
        <ele>502.43</ele>
        <time>2017-10-02T08:48:03Z</time>
      </trkpt>
      <trkpt lat="44.30325" lon="5.14879">
        <ele>502.91</ele>
        <time>2017-10-02T08:48:15Z</time>
      </trkpt>
      <trkpt lat="44.30343" lon="5.14893">
        <ele>502.43</ele>
        <time>2017-10-02T08:48:34Z</time>
      </trkpt>
      <trkpt lat="44.30356" lon="5.14917">
        <ele>502.91</ele>
        <time>2017-10-02T08:48:54Z</time>
      </trkpt>
      <trkpt lat="44.30356" lon="5.14922">
        <ele>503.87</ele>
        <time>2017-10-02T08:48:58Z</time>
      </trkpt>
      <trkpt lat="44.30359" lon="5.14951">
        <ele>505.31</ele>
        <time>2017-10-02T08:49:18Z</time>
      </trkpt>
      <trkpt lat="44.30363" lon="5.14959">
        <ele>506.27</ele>
        <time>2017-10-02T08:49:25Z</time>
      </trkpt>
      <trkpt lat="44.30371" lon="5.14978">
        <ele>508.19</ele>
        <time>2017-10-02T08:49:42Z</time>
      </trkpt>
      <trkpt lat="44.3038" lon="5.14999">
        <ele>509.64</ele>
        <time>2017-10-02T08:50:01Z</time>
      </trkpt>
      <trkpt lat="44.3038" lon="5.15022">
        <ele>511.08</ele>
        <time>2017-10-02T08:50:17Z</time>
      </trkpt>
      <trkpt lat="44.30378" lon="5.15036">
        <ele>512.04</ele>
        <time>2017-10-02T08:50:28Z</time>
      </trkpt>
      <trkpt lat="44.30373" lon="5.15057">
        <ele>514.44</ele>
        <time>2017-10-02T08:50:45Z</time>
      </trkpt>
      <trkpt lat="44.3037" lon="5.1508">
        <ele>515.88</ele>
        <time>2017-10-02T08:51:02Z</time>
      </trkpt>
      <trkpt lat="44.30364" lon="5.151">
        <ele>517.81</ele>
        <time>2017-10-02T08:51:18Z</time>
      </trkpt>
      <trkpt lat="44.30363" lon="5.15105">
        <ele>518.29</ele>
        <time>2017-10-02T08:51:23Z</time>
      </trkpt>
      <trkpt lat="44.30358" lon="5.15124">
        <ele>519.73</ele>
        <time>2017-10-02T08:51:39Z</time>
      </trkpt>
      <trkpt lat="44.30353" lon="5.15145">
        <ele>521.65</ele>
        <time>2017-10-02T08:51:56Z</time>
      </trkpt>
      <trkpt lat="44.30349" lon="5.15165">
        <ele>523.58</ele>
        <time>2017-10-02T08:52:13Z</time>
      </trkpt>
      <trkpt lat="44.30346" lon="5.15185">
        <ele>525.5</ele>
        <time>2017-10-02T08:52:29Z</time>
      </trkpt>
      <trkpt lat="44.30338" lon="5.15205">
        <ele>528.38</ele>
        <time>2017-10-02T08:52:48Z</time>
      </trkpt>
      <trkpt lat="44.30334" lon="5.15221">
        <ele>529.82</ele>
        <time>2017-10-02T08:53:02Z</time>
      </trkpt>
      <trkpt lat="44.30326" lon="5.15236">
        <ele>531.75</ele>
        <time>2017-10-02T08:53:18Z</time>
      </trkpt>
      <trkpt lat="44.30317" lon="5.15252">
        <ele>533.67</ele>
        <time>2017-10-02T08:53:34Z</time>
      </trkpt>
      <trkpt lat="44.30316" lon="5.15272">
        <ele>534.15</ele>
        <time>2017-10-02T08:53:50Z</time>
      </trkpt>
      <trkpt lat="44.30315" lon="5.15291">
        <ele>534.63</ele>
        <time>2017-10-02T08:54:04Z</time>
      </trkpt>
      <trkpt lat="44.3031" lon="5.15316">
        <ele>536.07</ele>
        <time>2017-10-02T08:54:23Z</time>
      </trkpt>
      <trkpt lat="44.3032" lon="5.15336">
        <ele>537.51</ele>
        <time>2017-10-02T08:54:41Z</time>
      </trkpt>
      <trkpt lat="44.30332" lon="5.15348">
        <ele>538.48</ele>
        <time>2017-10-02T08:54:55Z</time>
      </trkpt>
      <trkpt lat="44.30346" lon="5.15351">
        <ele>539.92</ele>
        <time>2017-10-02T08:55:11Z</time>
      </trkpt>
      <trkpt lat="44.30362" lon="5.15351">
        <ele>540.88</ele>
        <time>2017-10-02T08:55:27Z</time>
      </trkpt>
      <trkpt lat="44.3037" lon="5.15351">
        <ele>542.32</ele>
        <time>2017-10-02T08:55:43Z</time>
      </trkpt>
      <trkpt lat="44.30388" lon="5.15351">
        <ele>543.28</ele>
        <time>2017-10-02T08:56:00Z</time>
      </trkpt>
      <trkpt lat="44.30403" lon="5.1535">
        <ele>544.72</ele>
        <time>2017-10-02T08:56:19Z</time>
      </trkpt>
      <trkpt lat="44.3042" lon="5.15347">
        <ele>546.17</ele>
        <time>2017-10-02T08:56:37Z</time>
      </trkpt>
      <trkpt lat="44.30439" lon="5.15344">
        <ele>547.61</ele>
        <time>2017-10-02T08:56:56Z</time>
      </trkpt>
      <trkpt lat="44.30456" lon="5.15341">
        <ele>548.57</ele>
        <time>2017-10-02T08:57:13Z</time>
      </trkpt>
      <trkpt lat="44.30476" lon="5.15339">
        <ele>549.53</ele>
        <time>2017-10-02T08:57:32Z</time>
      </trkpt>
      <trkpt lat="44.30495" lon="5.15343">
        <ele>550.01</ele>
        <time>2017-10-02T08:57:49Z</time>
      </trkpt>
      <trkpt lat="44.305" lon="5.15349">
        <ele>550.01</ele>
        <time>2017-10-02T08:57:56Z</time>
      </trkpt>
      <trkpt lat="44.30501" lon="5.1535">
        <ele>550.01</ele>
        <time>2017-10-02T08:57:57Z</time>
      </trkpt>
      <trkpt lat="44.30513" lon="5.15362">
        <ele>551.45</ele>
        <time>2017-10-02T08:58:13Z</time>
      </trkpt>
      <trkpt lat="44.30514" lon="5.15362">
        <ele>551.45</ele>
        <time>2017-10-02T08:58:14Z</time>
      </trkpt>
      <trkpt lat="44.30531" lon="5.15355">
        <ele>552.41</ele>
        <time>2017-10-02T08:58:30Z</time>
      </trkpt>
      <trkpt lat="44.30536" lon="5.15346">
        <ele>552.9</ele>
        <time>2017-10-02T08:58:38Z</time>
      </trkpt>
      <trkpt lat="44.30549" lon="5.15327">
        <ele>552.9</ele>
        <time>2017-10-02T08:58:55Z</time>
      </trkpt>
      <trkpt lat="44.30565" lon="5.15319">
        <ele>552.9</ele>
        <time>2017-10-02T08:59:09Z</time>
      </trkpt>
      <trkpt lat="44.30582" lon="5.15325">
        <ele>552.9</ele>
        <time>2017-10-02T08:59:27Z</time>
      </trkpt>
      <trkpt lat="44.3059" lon="5.15336">
        <ele>555.3</ele>
        <time>2017-10-02T08:59:40Z</time>
      </trkpt>
      <trkpt lat="44.30602" lon="5.15354">
        <ele>557.22</ele>
        <time>2017-10-02T08:59:58Z</time>
      </trkpt>
      <trkpt lat="44.30606" lon="5.15363">
        <ele>557.22</ele>
        <time>2017-10-02T09:00:06Z</time>
      </trkpt>
      <trkpt lat="44.30606" lon="5.15375">
        <ele>557.7</ele>
        <time>2017-10-02T09:00:14Z</time>
      </trkpt>
      <trkpt lat="44.30605" lon="5.15403">
        <ele>557.22</ele>
        <time>2017-10-02T09:00:32Z</time>
      </trkpt>
      <trkpt lat="44.30606" lon="5.15404">
        <ele>559.14</ele>
        <time>2017-10-02T09:00:33Z</time>
      </trkpt>
      <trkpt lat="44.30606" lon="5.15406">
        <ele>559.14</ele>
        <time>2017-10-02T09:00:34Z</time>
      </trkpt>
      <trkpt lat="44.30606" lon="5.15408">
        <ele>559.14</ele>
        <time>2017-10-02T09:00:35Z</time>
      </trkpt>
      <trkpt lat="44.30606" lon="5.1541">
        <ele>559.14</ele>
        <time>2017-10-02T09:00:36Z</time>
      </trkpt>
      <trkpt lat="44.30606" lon="5.15412">
        <ele>559.14</ele>
        <time>2017-10-02T09:00:37Z</time>
      </trkpt>
      <trkpt lat="44.30607" lon="5.15434">
        <ele>558.66</ele>
        <time>2017-10-02T09:00:53Z</time>
      </trkpt>
      <trkpt lat="44.30608" lon="5.15445">
        <ele>560.11</ele>
        <time>2017-10-02T09:01:01Z</time>
      </trkpt>
      <trkpt lat="44.30613" lon="5.1547">
        <ele>561.07</ele>
        <time>2017-10-02T09:01:19Z</time>
      </trkpt>
      <trkpt lat="44.30626" lon="5.1549">
        <ele>561.55</ele>
        <time>2017-10-02T09:01:38Z</time>
      </trkpt>
      <trkpt lat="44.30642" lon="5.15502">
        <ele>560.11</ele>
        <time>2017-10-02T09:01:56Z</time>
      </trkpt>
      <trkpt lat="44.30659" lon="5.15509">
        <ele>559.14</ele>
        <time>2017-10-02T09:02:17Z</time>
      </trkpt>
      <trkpt lat="44.30661" lon="5.15511">
        <ele>558.66</ele>
        <time>2017-10-02T09:02:26Z</time>
      </trkpt>
      <trkpt lat="44.30662" lon="5.15514">
        <ele>559.14</ele>
        <time>2017-10-02T09:02:37Z</time>
      </trkpt>
      <trkpt lat="44.30673" lon="5.15514">
        <ele>559.14</ele>
        <time>2017-10-02T09:02:51Z</time>
      </trkpt>
      <trkpt lat="44.30681" lon="5.15521">
        <ele>558.66</ele>
        <time>2017-10-02T09:03:07Z</time>
      </trkpt>
      <trkpt lat="44.30683" lon="5.15529">
        <ele>558.18</ele>
        <time>2017-10-02T09:03:25Z</time>
      </trkpt>
      <trkpt lat="44.3068" lon="5.15534">
        <ele>558.18</ele>
        <time>2017-10-02T09:03:28Z</time>
      </trkpt>
      <trkpt lat="44.3066" lon="5.15549">
        <ele>559.62</ele>
        <time>2017-10-02T09:03:47Z</time>
      </trkpt>
      <trkpt lat="44.30644" lon="5.15559">
        <ele>561.07</ele>
        <time>2017-10-02T09:04:04Z</time>
      </trkpt>
      <trkpt lat="44.30637" lon="5.15576">
        <ele>562.99</ele>
        <time>2017-10-02T09:04:20Z</time>
      </trkpt>
      <trkpt lat="44.30636" lon="5.15579">
        <ele>562.99</ele>
        <time>2017-10-02T09:04:23Z</time>
      </trkpt>
      <trkpt lat="44.3064" lon="5.15607">
        <ele>564.43</ele>
        <time>2017-10-02T09:04:43Z</time>
      </trkpt>
      <trkpt lat="44.30647" lon="5.15636">
        <ele>565.39</ele>
        <time>2017-10-02T09:05:02Z</time>
      </trkpt>
      <trkpt lat="44.30654" lon="5.15672">
        <ele>565.87</ele>
        <time>2017-10-02T09:05:25Z</time>
      </trkpt>
      <trkpt lat="44.30658" lon="5.15703">
        <ele>566.35</ele>
        <time>2017-10-02T09:05:46Z</time>
      </trkpt>
      <trkpt lat="44.30646" lon="5.15731">
        <ele>566.35</ele>
        <time>2017-10-02T09:06:05Z</time>
      </trkpt>
      <trkpt lat="44.30634" lon="5.15753">
        <ele>567.8</ele>
        <time>2017-10-02T09:06:22Z</time>
      </trkpt>
      <trkpt lat="44.30627" lon="5.15772">
        <ele>569.72</ele>
        <time>2017-10-02T09:06:38Z</time>
      </trkpt>
      <trkpt lat="44.30618" lon="5.15797">
        <ele>571.64</ele>
        <time>2017-10-02T09:06:58Z</time>
      </trkpt>
      <trkpt lat="44.30612" lon="5.15811">
        <ele>573.08</ele>
        <time>2017-10-02T09:07:17Z</time>
      </trkpt>
      <trkpt lat="44.3061" lon="5.15816">
        <ele>573.08</ele>
        <time>2017-10-02T09:07:29Z</time>
      </trkpt>
      <trkpt lat="44.306" lon="5.15837">
        <ele>575.01</ele>
        <time>2017-10-02T09:07:46Z</time>
      </trkpt>
      <trkpt lat="44.30595" lon="5.15858">
        <ele>576.45</ele>
        <time>2017-10-02T09:08:05Z</time>
      </trkpt>
      <trkpt lat="44.30597" lon="5.15857">
        <ele>575.97</ele>
        <time>2017-10-02T09:08:21Z</time>
      </trkpt>
      <trkpt lat="44.30601" lon="5.15856">
        <ele>576.45</ele>
        <time>2017-10-02T09:08:51Z</time>
      </trkpt>
      <trkpt lat="44.30597" lon="5.15862">
        <ele>576.45</ele>
        <time>2017-10-02T09:09:10Z</time>
      </trkpt>
      <trkpt lat="44.30596" lon="5.15865">
        <ele>576.45</ele>
        <time>2017-10-02T09:09:30Z</time>
      </trkpt>
      <trkpt lat="44.30597" lon="5.15864">
        <ele>576.45</ele>
        <time>2017-10-02T09:09:47Z</time>
      </trkpt>
      <trkpt lat="44.30599" lon="5.15863">
        <ele>576.45</ele>
        <time>2017-10-02T09:10:09Z</time>
      </trkpt>
      <trkpt lat="44.306" lon="5.15862">
        <ele>576.93</ele>
        <time>2017-10-02T09:10:40Z</time>
      </trkpt>
      <trkpt lat="44.30599" lon="5.15865">
        <ele>576.93</ele>
        <time>2017-10-02T09:11:00Z</time>
      </trkpt>
      <trkpt lat="44.30597" lon="5.15865">
        <ele>576.93</ele>
        <time>2017-10-02T09:11:18Z</time>
      </trkpt>
      <trkpt lat="44.30595" lon="5.15866">
        <ele>576.93</ele>
        <time>2017-10-02T09:11:35Z</time>
      </trkpt>
      <trkpt lat="44.30597" lon="5.15877">
        <ele>577.41</ele>
        <time>2017-10-02T09:11:47Z</time>
      </trkpt>
      <trkpt lat="44.30611" lon="5.15901">
        <ele>577.89</ele>
        <time>2017-10-02T09:12:07Z</time>
      </trkpt>
      <trkpt lat="44.30625" lon="5.15914">
        <ele>578.85</ele>
        <time>2017-10-02T09:12:23Z</time>
      </trkpt>
      <trkpt lat="44.30626" lon="5.15914">
        <ele>579.33</ele>
        <time>2017-10-02T09:12:24Z</time>
      </trkpt>
      <trkpt lat="44.30627" lon="5.15915">
        <ele>579.33</ele>
        <time>2017-10-02T09:12:25Z</time>
      </trkpt>
      <trkpt lat="44.30628" lon="5.15916">
        <ele>579.33</ele>
        <time>2017-10-02T09:12:26Z</time>
      </trkpt>
      <trkpt lat="44.30629" lon="5.15918">
        <ele>579.33</ele>
        <time>2017-10-02T09:12:27Z</time>
      </trkpt>
      <trkpt lat="44.30646" lon="5.15936">
        <ele>580.29</ele>
        <time>2017-10-02T09:12:49Z</time>
      </trkpt>
      <trkpt lat="44.30653" lon="5.15943">
        <ele>580.29</ele>
        <time>2017-10-02T09:13:06Z</time>
      </trkpt>
      <trkpt lat="44.30659" lon="5.15947">
        <ele>580.29</ele>
        <time>2017-10-02T09:13:21Z</time>
      </trkpt>
      <trkpt lat="44.30664" lon="5.15957">
        <ele>579.81</ele>
        <time>2017-10-02T09:13:38Z</time>
      </trkpt>
      <trkpt lat="44.30669" lon="5.15957">
        <ele>579.33</ele>
        <time>2017-10-02T09:13:50Z</time>
      </trkpt>
      <trkpt lat="44.30682" lon="5.15959">
        <ele>579.33</ele>
        <time>2017-10-02T09:14:03Z</time>
      </trkpt>
      <trkpt lat="44.30693" lon="5.15976">
        <ele>579.33</ele>
        <time>2017-10-02T09:14:22Z</time>
      </trkpt>
      <trkpt lat="44.30705" lon="5.16001">
        <ele>579.33</ele>
        <time>2017-10-02T09:14:40Z</time>
      </trkpt>
      <trkpt lat="44.30706" lon="5.16002">
        <ele>579.33</ele>
        <time>2017-10-02T09:14:41Z</time>
      </trkpt>
      <trkpt lat="44.30713" lon="5.16027">
        <ele>579.33</ele>
        <time>2017-10-02T09:14:59Z</time>
      </trkpt>
      <trkpt lat="44.30722" lon="5.16053">
        <ele>580.77</ele>
        <time>2017-10-02T09:15:18Z</time>
      </trkpt>
      <trkpt lat="44.30737" lon="5.16082">
        <ele>581.25</ele>
        <time>2017-10-02T09:15:38Z</time>
      </trkpt>
      <trkpt lat="44.30743" lon="5.16101">
        <ele>581.25</ele>
        <time>2017-10-02T09:15:52Z</time>
      </trkpt>
      <trkpt lat="44.30743" lon="5.16103">
        <ele>581.25</ele>
        <time>2017-10-02T09:15:53Z</time>
      </trkpt>
      <trkpt lat="44.30753" lon="5.16133">
        <ele>581.25</ele>
        <time>2017-10-02T09:16:12Z</time>
      </trkpt>
      <trkpt lat="44.30757" lon="5.1616">
        <ele>581.25</ele>
        <time>2017-10-02T09:16:30Z</time>
      </trkpt>
      <trkpt lat="44.30757" lon="5.16187">
        <ele>578.85</ele>
        <time>2017-10-02T09:16:48Z</time>
      </trkpt>
      <trkpt lat="44.30762" lon="5.16218">
        <ele>578.37</ele>
        <time>2017-10-02T09:17:09Z</time>
      </trkpt>
      <trkpt lat="44.30777" lon="5.16238">
        <ele>577.89</ele>
        <time>2017-10-02T09:17:28Z</time>
      </trkpt>
      <trkpt lat="44.30779" lon="5.16238">
        <ele>577.89</ele>
        <time>2017-10-02T09:17:30Z</time>
      </trkpt>
      <trkpt lat="44.30802" lon="5.16234">
        <ele>577.41</ele>
        <time>2017-10-02T09:17:49Z</time>
      </trkpt>
      <trkpt lat="44.30822" lon="5.16228">
        <ele>575.97</ele>
        <time>2017-10-02T09:18:08Z</time>
      </trkpt>
      <trkpt lat="44.30829" lon="5.16233">
        <ele>575.97</ele>
        <time>2017-10-02T09:18:17Z</time>
      </trkpt>
      <trkpt lat="44.30833" lon="5.16257">
        <ele>575.97</ele>
        <time>2017-10-02T09:18:34Z</time>
      </trkpt>
      <trkpt lat="44.30831" lon="5.16275">
        <ele>577.89</ele>
        <time>2017-10-02T09:18:45Z</time>
      </trkpt>
      <trkpt lat="44.30818" lon="5.16293">
        <ele>578.85</ele>
        <time>2017-10-02T09:19:01Z</time>
      </trkpt>
      <trkpt lat="44.30817" lon="5.16296">
        <ele>578.85</ele>
        <time>2017-10-02T09:19:03Z</time>
      </trkpt>
      <trkpt lat="44.30804" lon="5.16323">
        <ele>579.81</ele>
        <time>2017-10-02T09:19:21Z</time>
      </trkpt>
      <trkpt lat="44.30797" lon="5.16344">
        <ele>582.22</ele>
        <time>2017-10-02T09:19:38Z</time>
      </trkpt>
      <trkpt lat="44.30793" lon="5.16357">
        <ele>583.66</ele>
        <time>2017-10-02T09:19:48Z</time>
      </trkpt>
      <trkpt lat="44.30781" lon="5.16372">
        <ele>585.58</ele>
        <time>2017-10-02T09:20:05Z</time>
      </trkpt>
      <trkpt lat="44.30769" lon="5.16391">
        <ele>587.5</ele>
        <time>2017-10-02T09:20:24Z</time>
      </trkpt>
      <trkpt lat="44.30763" lon="5.16413">
        <ele>588.46</ele>
        <time>2017-10-02T09:20:41Z</time>
      </trkpt>
      <trkpt lat="44.30766" lon="5.1643">
        <ele>590.87</ele>
        <time>2017-10-02T09:20:57Z</time>
      </trkpt>
      <trkpt lat="44.30769" lon="5.16446">
        <ele>593.27</ele>
        <time>2017-10-02T09:21:12Z</time>
      </trkpt>
      <trkpt lat="44.30771" lon="5.16461">
        <ele>595.19</ele>
        <time>2017-10-02T09:21:28Z</time>
      </trkpt>
      <trkpt lat="44.30772" lon="5.16466">
        <ele>595.19</ele>
        <time>2017-10-02T09:21:32Z</time>
      </trkpt>
      <trkpt lat="44.30773" lon="5.16488">
        <ele>595.19</ele>
        <time>2017-10-02T09:21:48Z</time>
      </trkpt>
      <trkpt lat="44.30772" lon="5.16489">
        <ele>595.19</ele>
        <time>2017-10-02T09:21:49Z</time>
      </trkpt>
      <trkpt lat="44.30762" lon="5.16498">
        <ele>595.19</ele>
        <time>2017-10-02T09:22:07Z</time>
      </trkpt>
      <trkpt lat="44.30764" lon="5.16498">
        <ele>595.67</ele>
        <time>2017-10-02T09:22:34Z</time>
      </trkpt>
      <trkpt lat="44.30764" lon="5.16497">
        <ele>595.19</ele>
        <time>2017-10-02T09:22:47Z</time>
      </trkpt>
      <trkpt lat="44.30761" lon="5.165">
        <ele>595.19</ele>
        <time>2017-10-02T09:23:07Z</time>
      </trkpt>
      <trkpt lat="44.30751" lon="5.16501">
        <ele>596.64</ele>
        <time>2017-10-02T09:23:23Z</time>
      </trkpt>
      <trkpt lat="44.30742" lon="5.16509">
        <ele>599.04</ele>
        <time>2017-10-02T09:23:38Z</time>
      </trkpt>
      <trkpt lat="44.30732" lon="5.16519">
        <ele>599.52</ele>
        <time>2017-10-02T09:23:54Z</time>
      </trkpt>
      <trkpt lat="44.30719" lon="5.16533">
        <ele>600.96</ele>
        <time>2017-10-02T09:24:12Z</time>
      </trkpt>
      <trkpt lat="44.30709" lon="5.16546">
        <ele>600</ele>
        <time>2017-10-02T09:24:27Z</time>
      </trkpt>
      <trkpt lat="44.30701" lon="5.16564">
        <ele>600</ele>
        <time>2017-10-02T09:24:46Z</time>
      </trkpt>
      <trkpt lat="44.30699" lon="5.16569">
        <ele>601.44</ele>
        <time>2017-10-02T09:24:51Z</time>
      </trkpt>
      <trkpt lat="44.30698" lon="5.16585">
        <ele>602.88</ele>
        <time>2017-10-02T09:25:04Z</time>
      </trkpt>
      <trkpt lat="44.307" lon="5.16605">
        <ele>604.33</ele>
        <time>2017-10-02T09:25:21Z</time>
      </trkpt>
      <trkpt lat="44.307" lon="5.1662">
        <ele>606.25</ele>
        <time>2017-10-02T09:25:38Z</time>
      </trkpt>
      <trkpt lat="44.30707" lon="5.1663">
        <ele>606.73</ele>
        <time>2017-10-02T09:25:52Z</time>
      </trkpt>
      <trkpt lat="44.30714" lon="5.16636">
        <ele>607.69</ele>
        <time>2017-10-02T09:26:06Z</time>
      </trkpt>
      <trkpt lat="44.30727" lon="5.16644">
        <ele>609.13</ele>
        <time>2017-10-02T09:26:19Z</time>
      </trkpt>
      <trkpt lat="44.3073" lon="5.16663">
        <ele>609.61</ele>
        <time>2017-10-02T09:26:36Z</time>
      </trkpt>
      <trkpt lat="44.30731" lon="5.16678">
        <ele>611.54</ele>
        <time>2017-10-02T09:26:50Z</time>
      </trkpt>
      <trkpt lat="44.30735" lon="5.16699">
        <ele>612.02</ele>
        <time>2017-10-02T09:27:06Z</time>
      </trkpt>
      <trkpt lat="44.30743" lon="5.16715">
        <ele>614.42</ele>
        <time>2017-10-02T09:27:22Z</time>
      </trkpt>
      <trkpt lat="44.30753" lon="5.16726">
        <ele>616.34</ele>
        <time>2017-10-02T09:27:37Z</time>
      </trkpt>
      <trkpt lat="44.30755" lon="5.16745">
        <ele>618.75</ele>
        <time>2017-10-02T09:27:54Z</time>
      </trkpt>
      <trkpt lat="44.30757" lon="5.16763">
        <ele>619.71</ele>
        <time>2017-10-02T09:28:09Z</time>
      </trkpt>
      <trkpt lat="44.30756" lon="5.16766">
        <ele>620.19</ele>
        <time>2017-10-02T09:28:11Z</time>
      </trkpt>
      <trkpt lat="44.30755" lon="5.16786">
        <ele>620.19</ele>
        <time>2017-10-02T09:28:26Z</time>
      </trkpt>
      <trkpt lat="44.30757" lon="5.16807">
        <ele>622.59</ele>
        <time>2017-10-02T09:28:43Z</time>
      </trkpt>
      <trkpt lat="44.30761" lon="5.16821">
        <ele>624.99</ele>
        <time>2017-10-02T09:28:57Z</time>
      </trkpt>
      <trkpt lat="44.30766" lon="5.16833">
        <ele>626.92</ele>
        <time>2017-10-02T09:29:12Z</time>
      </trkpt>
      <trkpt lat="44.30772" lon="5.16841">
        <ele>628.36</ele>
        <time>2017-10-02T09:29:28Z</time>
      </trkpt>
      <trkpt lat="44.30775" lon="5.16849">
        <ele>631.24</ele>
        <time>2017-10-02T09:29:45Z</time>
      </trkpt>
      <trkpt lat="44.30777" lon="5.16858">
        <ele>633.65</ele>
        <time>2017-10-02T09:30:00Z</time>
      </trkpt>
      <trkpt lat="44.30775" lon="5.16873">
        <ele>635.09</ele>
        <time>2017-10-02T09:30:15Z</time>
      </trkpt>
      <trkpt lat="44.30771" lon="5.16883">
        <ele>637.01</ele>
        <time>2017-10-02T09:30:29Z</time>
      </trkpt>
      <trkpt lat="44.30766" lon="5.1689">
        <ele>638.93</ele>
        <time>2017-10-02T09:30:42Z</time>
      </trkpt>
      <trkpt lat="44.30766" lon="5.16891">
        <ele>640.86</ele>
        <time>2017-10-02T09:30:56Z</time>
      </trkpt>
      <trkpt lat="44.30765" lon="5.16896">
        <ele>641.82</ele>
        <time>2017-10-02T09:31:14Z</time>
      </trkpt>
      <trkpt lat="44.30761" lon="5.16905">
        <ele>644.7</ele>
        <time>2017-10-02T09:31:30Z</time>
      </trkpt>
      <trkpt lat="44.30756" lon="5.16915">
        <ele>647.1</ele>
        <time>2017-10-02T09:31:43Z</time>
      </trkpt>
      <trkpt lat="44.30752" lon="5.16927">
        <ele>648.07</ele>
        <time>2017-10-02T09:31:57Z</time>
      </trkpt>
      <trkpt lat="44.30749" lon="5.16942">
        <ele>650.47</ele>
        <time>2017-10-02T09:32:14Z</time>
      </trkpt>
      <trkpt lat="44.30748" lon="5.16955">
        <ele>652.39</ele>
        <time>2017-10-02T09:32:28Z</time>
      </trkpt>
      <trkpt lat="44.30749" lon="5.16967">
        <ele>654.31</ele>
        <time>2017-10-02T09:32:42Z</time>
      </trkpt>
      <trkpt lat="44.3075" lon="5.16981">
        <ele>656.24</ele>
        <time>2017-10-02T09:32:59Z</time>
      </trkpt>
      <trkpt lat="44.30754" lon="5.16993">
        <ele>658.64</ele>
        <time>2017-10-02T09:33:14Z</time>
      </trkpt>
      <trkpt lat="44.30757" lon="5.17007">
        <ele>660.08</ele>
        <time>2017-10-02T09:33:28Z</time>
      </trkpt>
      <trkpt lat="44.30758" lon="5.17021">
        <ele>661.04</ele>
        <time>2017-10-02T09:33:42Z</time>
      </trkpt>
      <trkpt lat="44.30756" lon="5.17036">
        <ele>662.49</ele>
        <time>2017-10-02T09:33:55Z</time>
      </trkpt>
      <trkpt lat="44.30759" lon="5.17051">
        <ele>664.89</ele>
        <time>2017-10-02T09:34:10Z</time>
      </trkpt>
      <trkpt lat="44.30762" lon="5.1706">
        <ele>666.33</ele>
        <time>2017-10-02T09:34:22Z</time>
      </trkpt>
      <trkpt lat="44.30761" lon="5.17076">
        <ele>667.29</ele>
        <time>2017-10-02T09:34:37Z</time>
      </trkpt>
      <trkpt lat="44.30749" lon="5.17093">
        <ele>668.25</ele>
        <time>2017-10-02T09:34:54Z</time>
      </trkpt>
      <trkpt lat="44.30743" lon="5.17114">
        <ele>668.25</ele>
        <time>2017-10-02T09:35:11Z</time>
      </trkpt>
      <trkpt lat="44.30739" lon="5.17133">
        <ele>669.22</ele>
        <time>2017-10-02T09:35:26Z</time>
      </trkpt>
      <trkpt lat="44.30737" lon="5.17146">
        <ele>670.66</ele>
        <time>2017-10-02T09:35:40Z</time>
      </trkpt>
      <trkpt lat="44.3073" lon="5.17158">
        <ele>672.1</ele>
        <time>2017-10-02T09:35:54Z</time>
      </trkpt>
      <trkpt lat="44.30724" lon="5.17171">
        <ele>674.5</ele>
        <time>2017-10-02T09:36:08Z</time>
      </trkpt>
      <trkpt lat="44.30718" lon="5.17179">
        <ele>676.42</ele>
        <time>2017-10-02T09:36:22Z</time>
      </trkpt>
      <trkpt lat="44.30715" lon="5.17185">
        <ele>678.83</ele>
        <time>2017-10-02T09:36:38Z</time>
      </trkpt>
      <trkpt lat="44.30715" lon="5.17196">
        <ele>680.27</ele>
        <time>2017-10-02T09:36:51Z</time>
      </trkpt>
      <trkpt lat="44.30711" lon="5.17204">
        <ele>681.71</ele>
        <time>2017-10-02T09:37:07Z</time>
      </trkpt>
      <trkpt lat="44.30708" lon="5.17212">
        <ele>683.63</ele>
        <time>2017-10-02T09:37:24Z</time>
      </trkpt>
      <trkpt lat="44.30705" lon="5.17213">
        <ele>684.6</ele>
        <time>2017-10-02T09:37:35Z</time>
      </trkpt>
      <trkpt lat="44.30699" lon="5.1721">
        <ele>685.08</ele>
        <time>2017-10-02T09:37:54Z</time>
      </trkpt>
      <trkpt lat="44.30694" lon="5.17219">
        <ele>687</ele>
        <time>2017-10-02T09:38:09Z</time>
      </trkpt>
      <trkpt lat="44.30695" lon="5.17225">
        <ele>688.92</ele>
        <time>2017-10-02T09:38:25Z</time>
      </trkpt>
      <trkpt lat="44.307" lon="5.17228">
        <ele>690.36</ele>
        <time>2017-10-02T09:38:38Z</time>
      </trkpt>
      <trkpt lat="44.30698" lon="5.17233">
        <ele>691.81</ele>
        <time>2017-10-02T09:38:53Z</time>
      </trkpt>
      <trkpt lat="44.30698" lon="5.17233">
        <ele>691.81</ele>
        <time>2017-10-02T09:39:19Z</time>
      </trkpt>
      <trkpt lat="44.30698" lon="5.17231">
        <ele>690.84</ele>
        <time>2017-10-02T09:39:35Z</time>
      </trkpt>
      <trkpt lat="44.30698" lon="5.17232">
        <ele>690.84</ele>
        <time>2017-10-02T09:39:57Z</time>
      </trkpt>
      <trkpt lat="44.30701" lon="5.17232">
        <ele>692.29</ele>
        <time>2017-10-02T09:40:13Z</time>
      </trkpt>
      <trkpt lat="44.30696" lon="5.1723">
        <ele>690.36</ele>
        <time>2017-10-02T09:40:26Z</time>
      </trkpt>
      <trkpt lat="44.30697" lon="5.17231">
        <ele>689.4</ele>
        <time>2017-10-02T09:40:27Z</time>
      </trkpt>
      <trkpt lat="44.30696" lon="5.17232">
        <ele>691.81</ele>
        <time>2017-10-02T09:40:29Z</time>
      </trkpt>
      <trkpt lat="44.30697" lon="5.1723">
        <ele>691.81</ele>
        <time>2017-10-02T09:40:44Z</time>
      </trkpt>
      <trkpt lat="44.30699" lon="5.1723">
        <ele>692.29</ele>
        <time>2017-10-02T09:41:10Z</time>
      </trkpt>
      <trkpt lat="44.30702" lon="5.17229">
        <ele>692.29</ele>
        <time>2017-10-02T09:41:27Z</time>
      </trkpt>
      <trkpt lat="44.307" lon="5.1723">
        <ele>692.29</ele>
        <time>2017-10-02T09:41:55Z</time>
      </trkpt>
      <trkpt lat="44.307" lon="5.17228">
        <ele>692.29</ele>
        <time>2017-10-02T09:42:12Z</time>
      </trkpt>
      <trkpt lat="44.307" lon="5.17229">
        <ele>692.29</ele>
        <time>2017-10-02T09:42:38Z</time>
      </trkpt>
      <trkpt lat="44.307" lon="5.17228">
        <ele>692.29</ele>
        <time>2017-10-02T09:43:08Z</time>
      </trkpt>
      <trkpt lat="44.30701" lon="5.17226">
        <ele>692.77</ele>
        <time>2017-10-02T09:43:40Z</time>
      </trkpt>
      <trkpt lat="44.30698" lon="5.17226">
        <ele>692.77</ele>
        <time>2017-10-02T09:44:05Z</time>
      </trkpt>
      <trkpt lat="44.30698" lon="5.17233">
        <ele>692.77</ele>
        <time>2017-10-02T09:44:27Z</time>
      </trkpt>
      <trkpt lat="44.30698" lon="5.17236">
        <ele>694.21</ele>
        <time>2017-10-02T09:44:32Z</time>
      </trkpt>
      <trkpt lat="44.30695" lon="5.17242">
        <ele>695.65</ele>
        <time>2017-10-02T09:44:47Z</time>
      </trkpt>
      <trkpt lat="44.30691" lon="5.17246">
        <ele>697.09</ele>
        <time>2017-10-02T09:45:01Z</time>
      </trkpt>
      <trkpt lat="44.3069" lon="5.17247">
        <ele>698.05</ele>
        <time>2017-10-02T09:45:27Z</time>
      </trkpt>
      <trkpt lat="44.30682" lon="5.17256">
        <ele>699.98</ele>
        <time>2017-10-02T09:45:42Z</time>
      </trkpt>
      <trkpt lat="44.30676" lon="5.17264">
        <ele>702.38</ele>
        <time>2017-10-02T09:45:59Z</time>
      </trkpt>
      <trkpt lat="44.30677" lon="5.17268">
        <ele>703.82</ele>
        <time>2017-10-02T09:46:10Z</time>
      </trkpt>
      <trkpt lat="44.30678" lon="5.17268">
        <ele>704.3</ele>
        <time>2017-10-02T09:46:31Z</time>
      </trkpt>
      <trkpt lat="44.30678" lon="5.17264">
        <ele>704.3</ele>
        <time>2017-10-02T09:46:53Z</time>
      </trkpt>
      <trkpt lat="44.30676" lon="5.17264">
        <ele>704.3</ele>
        <time>2017-10-02T09:47:18Z</time>
      </trkpt>
      <trkpt lat="44.30675" lon="5.17267">
        <ele>704.3</ele>
        <time>2017-10-02T09:47:32Z</time>
      </trkpt>
      <trkpt lat="44.30674" lon="5.17268">
        <ele>704.3</ele>
        <time>2017-10-02T09:48:02Z</time>
      </trkpt>
      <trkpt lat="44.30673" lon="5.17265">
        <ele>704.3</ele>
        <time>2017-10-02T09:48:30Z</time>
      </trkpt>
      <trkpt lat="44.30674" lon="5.17266">
        <ele>704.78</ele>
        <time>2017-10-02T09:48:58Z</time>
      </trkpt>
      <trkpt lat="44.30673" lon="5.17265">
        <ele>704.78</ele>
        <time>2017-10-02T09:49:20Z</time>
      </trkpt>
      <trkpt lat="44.30671" lon="5.17267">
        <ele>704.78</ele>
        <time>2017-10-02T09:49:54Z</time>
      </trkpt>
      <trkpt lat="44.30672" lon="5.1727">
        <ele>704.78</ele>
        <time>2017-10-02T09:50:23Z</time>
      </trkpt>
      <trkpt lat="44.3067" lon="5.17271">
        <ele>705.26</ele>
        <time>2017-10-02T09:50:53Z</time>
      </trkpt>
      <trkpt lat="44.30673" lon="5.17268">
        <ele>705.26</ele>
        <time>2017-10-02T09:51:19Z</time>
      </trkpt>
      <trkpt lat="44.30674" lon="5.17266">
        <ele>705.26</ele>
        <time>2017-10-02T09:51:39Z</time>
      </trkpt>
      <trkpt lat="44.30675" lon="5.17266">
        <ele>705.75</ele>
        <time>2017-10-02T09:51:55Z</time>
      </trkpt>
      <trkpt lat="44.30674" lon="5.17266">
        <ele>705.75</ele>
        <time>2017-10-02T09:52:28Z</time>
      </trkpt>
      <trkpt lat="44.30673" lon="5.17268">
        <ele>705.75</ele>
        <time>2017-10-02T09:52:59Z</time>
      </trkpt>
      <trkpt lat="44.30673" lon="5.17274">
        <ele>704.78</ele>
        <time>2017-10-02T09:53:22Z</time>
      </trkpt>
      <trkpt lat="44.30672" lon="5.17275">
        <ele>704.78</ele>
        <time>2017-10-02T09:53:42Z</time>
      </trkpt>
      <trkpt lat="44.30674" lon="5.17277">
        <ele>704.78</ele>
        <time>2017-10-02T09:54:06Z</time>
      </trkpt>
      <trkpt lat="44.30675" lon="5.17273">
        <ele>705.26</ele>
        <time>2017-10-02T09:54:23Z</time>
      </trkpt>
      <trkpt lat="44.30675" lon="5.17272">
        <ele>705.26</ele>
        <time>2017-10-02T09:54:46Z</time>
      </trkpt>
      <trkpt lat="44.30674" lon="5.17272">
        <ele>704.78</ele>
        <time>2017-10-02T09:55:04Z</time>
      </trkpt>
      <trkpt lat="44.30684" lon="5.17266">
        <ele>706.23</ele>
        <time>2017-10-02T09:55:19Z</time>
      </trkpt>
      <trkpt lat="44.30698" lon="5.17263">
        <ele>707.67</ele>
        <time>2017-10-02T09:55:34Z</time>
      </trkpt>
      <trkpt lat="44.30713" lon="5.17265">
        <ele>710.07</ele>
        <time>2017-10-02T09:55:51Z</time>
      </trkpt>
      <trkpt lat="44.30724" lon="5.17267">
        <ele>712.47</ele>
        <time>2017-10-02T09:56:05Z</time>
      </trkpt>
      <trkpt lat="44.30734" lon="5.17269">
        <ele>715.84</ele>
        <time>2017-10-02T09:56:22Z</time>
      </trkpt>
      <trkpt lat="44.30742" lon="5.17272">
        <ele>718.24</ele>
        <time>2017-10-02T09:56:37Z</time>
      </trkpt>
      <trkpt lat="44.30751" lon="5.17275">
        <ele>720.16</ele>
        <time>2017-10-02T09:56:51Z</time>
      </trkpt>
      <trkpt lat="44.30758" lon="5.17279">
        <ele>721.61</ele>
        <time>2017-10-02T09:57:03Z</time>
      </trkpt>
      <trkpt lat="44.30768" lon="5.17285">
        <ele>723.05</ele>
        <time>2017-10-02T09:57:18Z</time>
      </trkpt>
      <trkpt lat="44.30781" lon="5.17291">
        <ele>724.97</ele>
        <time>2017-10-02T09:57:36Z</time>
      </trkpt>
      <trkpt lat="44.30792" lon="5.17295">
        <ele>726.41</ele>
        <time>2017-10-02T09:57:48Z</time>
      </trkpt>
      <trkpt lat="44.30802" lon="5.17302">
        <ele>728.34</ele>
        <time>2017-10-02T09:58:03Z</time>
      </trkpt>
      <trkpt lat="44.30809" lon="5.17309">
        <ele>730.74</ele>
        <time>2017-10-02T09:58:17Z</time>
      </trkpt>
      <trkpt lat="44.30816" lon="5.17316">
        <ele>733.62</ele>
        <time>2017-10-02T09:58:33Z</time>
      </trkpt>
      <trkpt lat="44.30824" lon="5.17321">
        <ele>735.55</ele>
        <time>2017-10-02T09:58:47Z</time>
      </trkpt>
      <trkpt lat="44.30832" lon="5.17326">
        <ele>737.95</ele>
        <time>2017-10-02T09:59:02Z</time>
      </trkpt>
      <trkpt lat="44.30836" lon="5.17326">
        <ele>738.91</ele>
        <time>2017-10-02T09:59:16Z</time>
      </trkpt>
      <trkpt lat="44.30847" lon="5.1733">
        <ele>741.31</ele>
        <time>2017-10-02T09:59:32Z</time>
      </trkpt>
      <trkpt lat="44.30855" lon="5.17334">
        <ele>743.24</ele>
        <time>2017-10-02T09:59:45Z</time>
      </trkpt>
      <trkpt lat="44.30863" lon="5.17339">
        <ele>746.12</ele>
        <time>2017-10-02T10:00:00Z</time>
      </trkpt>
      <trkpt lat="44.30871" lon="5.17346">
        <ele>749</ele>
        <time>2017-10-02T10:00:15Z</time>
      </trkpt>
      <trkpt lat="44.30882" lon="5.17352">
        <ele>750.45</ele>
        <time>2017-10-02T10:00:31Z</time>
      </trkpt>
      <trkpt lat="44.30894" lon="5.17353">
        <ele>752.85</ele>
        <time>2017-10-02T10:00:47Z</time>
      </trkpt>
      <trkpt lat="44.3091" lon="5.1734">
        <ele>754.29</ele>
        <time>2017-10-02T10:01:04Z</time>
      </trkpt>
      <trkpt lat="44.30914" lon="5.17338">
        <ele>756.21</ele>
        <time>2017-10-02T10:01:09Z</time>
      </trkpt>
      <trkpt lat="44.30927" lon="5.17331">
        <ele>757.66</ele>
        <time>2017-10-02T10:01:26Z</time>
      </trkpt>
      <trkpt lat="44.30946" lon="5.17327">
        <ele>759.1</ele>
        <time>2017-10-02T10:01:47Z</time>
      </trkpt>
      <trkpt lat="44.30962" lon="5.17318">
        <ele>760.54</ele>
        <time>2017-10-02T10:02:03Z</time>
      </trkpt>
      <trkpt lat="44.30975" lon="5.17311">
        <ele>761.5</ele>
        <time>2017-10-02T10:02:19Z</time>
      </trkpt>
      <trkpt lat="44.30982" lon="5.17308">
        <ele>761.98</ele>
        <time>2017-10-02T10:02:35Z</time>
      </trkpt>
      <trkpt lat="44.30983" lon="5.17309">
        <ele>761.98</ele>
        <time>2017-10-02T10:02:55Z</time>
      </trkpt>
      <trkpt lat="44.30981" lon="5.17308">
        <ele>760.54</ele>
        <time>2017-10-02T10:03:08Z</time>
      </trkpt>
      <trkpt lat="44.30978" lon="5.17308">
        <ele>760.54</ele>
        <time>2017-10-02T10:03:28Z</time>
      </trkpt>
      <trkpt lat="44.30977" lon="5.17307">
        <ele>761.98</ele>
        <time>2017-10-02T10:03:36Z</time>
      </trkpt>
      <trkpt lat="44.30977" lon="5.17308">
        <ele>761.98</ele>
        <time>2017-10-02T10:03:58Z</time>
      </trkpt>
      <trkpt lat="44.30979" lon="5.17309">
        <ele>762.46</ele>
        <time>2017-10-02T10:04:10Z</time>
      </trkpt>
      <trkpt lat="44.30979" lon="5.17308">
        <ele>762.46</ele>
        <time>2017-10-02T10:04:32Z</time>
      </trkpt>
      <trkpt lat="44.30979" lon="5.17308">
        <ele>762.46</ele>
        <time>2017-10-02T10:04:56Z</time>
      </trkpt>
      <trkpt lat="44.30979" lon="5.17308">
        <ele>762.46</ele>
        <time>2017-10-02T10:05:28Z</time>
      </trkpt>
      <trkpt lat="44.30978" lon="5.1731">
        <ele>762.46</ele>
        <time>2017-10-02T10:05:50Z</time>
      </trkpt>
      <trkpt lat="44.30976" lon="5.17309">
        <ele>762.46</ele>
        <time>2017-10-02T10:06:17Z</time>
      </trkpt>
      <trkpt lat="44.30976" lon="5.17311">
        <ele>762.46</ele>
        <time>2017-10-02T10:06:51Z</time>
      </trkpt>
      <trkpt lat="44.30977" lon="5.1731">
        <ele>761.02</ele>
        <time>2017-10-02T10:07:15Z</time>
      </trkpt>
      <trkpt lat="44.30977" lon="5.17312">
        <ele>761.5</ele>
        <time>2017-10-02T10:07:34Z</time>
      </trkpt>
      <trkpt lat="44.30977" lon="5.17309">
        <ele>761.5</ele>
        <time>2017-10-02T10:08:10Z</time>
      </trkpt>
      <trkpt lat="44.30978" lon="5.17308">
        <ele>761.5</ele>
        <time>2017-10-02T10:08:26Z</time>
      </trkpt>
      <trkpt lat="44.3098" lon="5.17308">
        <ele>761.5</ele>
        <time>2017-10-02T10:08:45Z</time>
      </trkpt>
      <trkpt lat="44.30998" lon="5.17297">
        <ele>761.5</ele>
        <time>2017-10-02T10:09:04Z</time>
      </trkpt>
      <trkpt lat="44.31015" lon="5.1729">
        <ele>760.54</ele>
        <time>2017-10-02T10:09:21Z</time>
      </trkpt>
      <trkpt lat="44.31033" lon="5.17286">
        <ele>759.58</ele>
        <time>2017-10-02T10:09:40Z</time>
      </trkpt>
      <trkpt lat="44.31043" lon="5.17283">
        <ele>758.14</ele>
        <time>2017-10-02T10:09:52Z</time>
      </trkpt>
      <trkpt lat="44.3105" lon="5.1728">
        <ele>755.73</ele>
        <time>2017-10-02T10:10:00Z</time>
      </trkpt>
      <trkpt lat="44.31051" lon="5.17279">
        <ele>761.98</ele>
        <time>2017-10-02T10:10:01Z</time>
      </trkpt>
      <trkpt lat="44.31052" lon="5.17279">
        <ele>758.62</ele>
        <time>2017-10-02T10:10:02Z</time>
      </trkpt>
      <trkpt lat="44.31065" lon="5.17279">
        <ele>758.62</ele>
        <time>2017-10-02T10:10:20Z</time>
      </trkpt>
      <trkpt lat="44.31068" lon="5.17281">
        <ele>758.62</ele>
        <time>2017-10-02T10:10:24Z</time>
      </trkpt>
      <trkpt lat="44.31087" lon="5.1729">
        <ele>758.62</ele>
        <time>2017-10-02T10:10:45Z</time>
      </trkpt>
      <trkpt lat="44.31105" lon="5.17297">
        <ele>759.1</ele>
        <time>2017-10-02T10:11:04Z</time>
      </trkpt>
      <trkpt lat="44.31119" lon="5.17304">
        <ele>760.06</ele>
        <time>2017-10-02T10:11:19Z</time>
      </trkpt>
      <trkpt lat="44.31133" lon="5.17308">
        <ele>761.98</ele>
        <time>2017-10-02T10:11:35Z</time>
      </trkpt>
      <trkpt lat="44.31147" lon="5.17315">
        <ele>764.39</ele>
        <time>2017-10-02T10:11:50Z</time>
      </trkpt>
      <trkpt lat="44.31161" lon="5.17323">
        <ele>765.35</ele>
        <time>2017-10-02T10:12:08Z</time>
      </trkpt>
      <trkpt lat="44.31174" lon="5.17334">
        <ele>766.79</ele>
        <time>2017-10-02T10:12:26Z</time>
      </trkpt>
      <trkpt lat="44.31186" lon="5.17344">
        <ele>768.71</ele>
        <time>2017-10-02T10:12:41Z</time>
      </trkpt>
      <trkpt lat="44.31196" lon="5.17352">
        <ele>770.15</ele>
        <time>2017-10-02T10:12:55Z</time>
      </trkpt>
      <trkpt lat="44.31211" lon="5.17359">
        <ele>772.08</ele>
        <time>2017-10-02T10:13:12Z</time>
      </trkpt>
      <trkpt lat="44.31226" lon="5.17364">
        <ele>772.56</ele>
        <time>2017-10-02T10:13:28Z</time>
      </trkpt>
      <trkpt lat="44.31245" lon="5.17369">
        <ele>774.48</ele>
        <time>2017-10-02T10:13:47Z</time>
      </trkpt>
      <trkpt lat="44.31256" lon="5.17371">
        <ele>775.92</ele>
        <time>2017-10-02T10:14:03Z</time>
      </trkpt>
      <trkpt lat="44.31259" lon="5.17375">
        <ele>776.4</ele>
        <time>2017-10-02T10:14:18Z</time>
      </trkpt>
      <trkpt lat="44.31261" lon="5.17375">
        <ele>776.4</ele>
        <time>2017-10-02T10:14:42Z</time>
      </trkpt>
      <trkpt lat="44.31274" lon="5.17373">
        <ele>778.32</ele>
        <time>2017-10-02T10:14:59Z</time>
      </trkpt>
      <trkpt lat="44.3129" lon="5.17372">
        <ele>780.73</ele>
        <time>2017-10-02T10:15:18Z</time>
      </trkpt>
      <trkpt lat="44.31309" lon="5.17367">
        <ele>782.17</ele>
        <time>2017-10-02T10:15:36Z</time>
      </trkpt>
      <trkpt lat="44.31318" lon="5.17363">
        <ele>782.65</ele>
        <time>2017-10-02T10:15:45Z</time>
      </trkpt>
      <trkpt lat="44.31327" lon="5.17357">
        <ele>783.61</ele>
        <time>2017-10-02T10:16:01Z</time>
      </trkpt>
      <trkpt lat="44.31333" lon="5.17352">
        <ele>783.61</ele>
        <time>2017-10-02T10:16:22Z</time>
      </trkpt>
      <trkpt lat="44.31345" lon="5.17338">
        <ele>783.61</ele>
        <time>2017-10-02T10:16:39Z</time>
      </trkpt>
      <trkpt lat="44.31357" lon="5.17326">
        <ele>783.61</ele>
        <time>2017-10-02T10:16:54Z</time>
      </trkpt>
      <trkpt lat="44.3137" lon="5.17312">
        <ele>783.61</ele>
        <time>2017-10-02T10:17:11Z</time>
      </trkpt>
      <trkpt lat="44.31373" lon="5.17309">
        <ele>782.17</ele>
        <time>2017-10-02T10:17:15Z</time>
      </trkpt>
      <trkpt lat="44.31383" lon="5.17297">
        <ele>782.17</ele>
        <time>2017-10-02T10:17:31Z</time>
      </trkpt>
      <trkpt lat="44.31395" lon="5.1728">
        <ele>781.69</ele>
        <time>2017-10-02T10:17:47Z</time>
      </trkpt>
      <trkpt lat="44.314" lon="5.17261">
        <ele>781.69</ele>
        <time>2017-10-02T10:18:01Z</time>
      </trkpt>
      <trkpt lat="44.31404" lon="5.17242">
        <ele>783.61</ele>
        <time>2017-10-02T10:18:15Z</time>
      </trkpt>
      <trkpt lat="44.31412" lon="5.17222">
        <ele>785.05</ele>
        <time>2017-10-02T10:18:32Z</time>
      </trkpt>
      <trkpt lat="44.31417" lon="5.17205">
        <ele>786.5</ele>
        <time>2017-10-02T10:18:46Z</time>
      </trkpt>
      <trkpt lat="44.31425" lon="5.17187">
        <ele>788.42</ele>
        <time>2017-10-02T10:19:03Z</time>
      </trkpt>
      <trkpt lat="44.31433" lon="5.17169">
        <ele>790.34</ele>
        <time>2017-10-02T10:19:19Z</time>
      </trkpt>
      <trkpt lat="44.3144" lon="5.17153">
        <ele>792.26</ele>
        <time>2017-10-02T10:19:34Z</time>
      </trkpt>
      <trkpt lat="44.31447" lon="5.17138">
        <ele>793.71</ele>
        <time>2017-10-02T10:19:49Z</time>
      </trkpt>
      <trkpt lat="44.31452" lon="5.17122">
        <ele>795.15</ele>
        <time>2017-10-02T10:20:03Z</time>
      </trkpt>
      <trkpt lat="44.31457" lon="5.17107">
        <ele>796.59</ele>
        <time>2017-10-02T10:20:17Z</time>
      </trkpt>
      <trkpt lat="44.31461" lon="5.17088">
        <ele>798.03</ele>
        <time>2017-10-02T10:20:33Z</time>
      </trkpt>
      <trkpt lat="44.31471" lon="5.17069">
        <ele>798.51</ele>
        <time>2017-10-02T10:20:48Z</time>
      </trkpt>
      <trkpt lat="44.31481" lon="5.1705">
        <ele>799.47</ele>
        <time>2017-10-02T10:21:03Z</time>
      </trkpt>
      <trkpt lat="44.31495" lon="5.1704">
        <ele>800.92</ele>
        <time>2017-10-02T10:21:21Z</time>
      </trkpt>
      <trkpt lat="44.31507" lon="5.17034">
        <ele>803.32</ele>
        <time>2017-10-02T10:21:36Z</time>
      </trkpt>
      <trkpt lat="44.31512" lon="5.17023">
        <ele>804.76</ele>
        <time>2017-10-02T10:21:49Z</time>
      </trkpt>
      <trkpt lat="44.31502" lon="5.17013">
        <ele>805.24</ele>
        <time>2017-10-02T10:22:06Z</time>
      </trkpt>
      <trkpt lat="44.31501" lon="5.17011">
        <ele>806.2</ele>
        <time>2017-10-02T10:22:23Z</time>
      </trkpt>
      <trkpt lat="44.315" lon="5.1701">
        <ele>805.24</ele>
        <time>2017-10-02T10:22:49Z</time>
      </trkpt>
      <trkpt lat="44.31498" lon="5.17013">
        <ele>804.76</ele>
        <time>2017-10-02T10:23:11Z</time>
      </trkpt>
      <trkpt lat="44.315" lon="5.17015">
        <ele>804.28</ele>
        <time>2017-10-02T10:23:49Z</time>
      </trkpt>
      <trkpt lat="44.31501" lon="5.17016">
        <ele>804.76</ele>
        <time>2017-10-02T10:24:30Z</time>
      </trkpt>
      <trkpt lat="44.31501" lon="5.17018">
        <ele>804.76</ele>
        <time>2017-10-02T10:25:09Z</time>
      </trkpt>
      <trkpt lat="44.31499" lon="5.17016">
        <ele>804.76</ele>
        <time>2017-10-02T10:25:35Z</time>
      </trkpt>
      <trkpt lat="44.31499" lon="5.17014">
        <ele>805.24</ele>
        <time>2017-10-02T10:26:14Z</time>
      </trkpt>
      <trkpt lat="44.315" lon="5.17015">
        <ele>805.24</ele>
        <time>2017-10-02T10:26:48Z</time>
      </trkpt>
      <trkpt lat="44.31499" lon="5.17013">
        <ele>805.72</ele>
        <time>2017-10-02T10:27:23Z</time>
      </trkpt>
      <trkpt lat="44.31497" lon="5.17016">
        <ele>805.72</ele>
        <time>2017-10-02T10:27:58Z</time>
      </trkpt>
      <trkpt lat="44.31499" lon="5.17014">
        <ele>805.72</ele>
        <time>2017-10-02T10:28:41Z</time>
      </trkpt>
      <trkpt lat="44.31501" lon="5.17016">
        <ele>806.2</ele>
        <time>2017-10-02T10:29:20Z</time>
      </trkpt>
      <trkpt lat="44.31497" lon="5.17014">
        <ele>806.2</ele>
        <time>2017-10-02T10:29:55Z</time>
      </trkpt>
      <trkpt lat="44.31498" lon="5.17017">
        <ele>806.2</ele>
        <time>2017-10-02T10:30:34Z</time>
      </trkpt>
      <trkpt lat="44.31497" lon="5.17018">
        <ele>806.2</ele>
        <time>2017-10-02T10:31:12Z</time>
      </trkpt>
      <trkpt lat="44.31497" lon="5.17018">
        <ele>806.68</ele>
        <time>2017-10-02T10:31:57Z</time>
      </trkpt>
      <trkpt lat="44.31498" lon="5.17016">
        <ele>807.16</ele>
        <time>2017-10-02T10:32:43Z</time>
      </trkpt>
      <trkpt lat="44.31498" lon="5.17018">
        <ele>807.16</ele>
        <time>2017-10-02T10:33:22Z</time>
      </trkpt>
      <trkpt lat="44.31499" lon="5.17015">
        <ele>807.16</ele>
        <time>2017-10-02T10:34:00Z</time>
      </trkpt>
      <trkpt lat="44.31498" lon="5.17017">
        <ele>807.64</ele>
        <time>2017-10-02T10:34:40Z</time>
      </trkpt>
      <trkpt lat="44.31498" lon="5.17015">
        <ele>807.64</ele>
        <time>2017-10-02T10:35:19Z</time>
      </trkpt>
      <trkpt lat="44.31498" lon="5.17015">
        <ele>808.13</ele>
        <time>2017-10-02T10:35:57Z</time>
      </trkpt>
      <trkpt lat="44.31498" lon="5.17016">
        <ele>808.13</ele>
        <time>2017-10-02T10:36:29Z</time>
      </trkpt>
      <trkpt lat="44.31499" lon="5.17016">
        <ele>808.13</ele>
        <time>2017-10-02T10:37:01Z</time>
      </trkpt>
      <trkpt lat="44.31498" lon="5.17013">
        <ele>808.61</ele>
        <time>2017-10-02T10:37:36Z</time>
      </trkpt>
      <trkpt lat="44.31497" lon="5.17017">
        <ele>808.61</ele>
        <time>2017-10-02T10:38:11Z</time>
      </trkpt>
      <trkpt lat="44.31496" lon="5.17016">
        <ele>809.09</ele>
        <time>2017-10-02T10:38:53Z</time>
      </trkpt>
      <trkpt lat="44.31497" lon="5.17016">
        <ele>809.09</ele>
        <time>2017-10-02T10:39:29Z</time>
      </trkpt>
      <trkpt lat="44.31497" lon="5.17014">
        <ele>809.57</ele>
        <time>2017-10-02T10:40:09Z</time>
      </trkpt>
      <trkpt lat="44.31498" lon="5.17015">
        <ele>809.57</ele>
        <time>2017-10-02T10:40:41Z</time>
      </trkpt>
      <trkpt lat="44.31497" lon="5.17015">
        <ele>810.05</ele>
        <time>2017-10-02T10:41:09Z</time>
      </trkpt>
      <trkpt lat="44.31498" lon="5.17013">
        <ele>810.05</ele>
        <time>2017-10-02T10:41:39Z</time>
      </trkpt>
      <trkpt lat="44.31499" lon="5.17013">
        <ele>810.05</ele>
        <time>2017-10-02T10:42:15Z</time>
      </trkpt>
      <trkpt lat="44.31499" lon="5.17011">
        <ele>810.05</ele>
        <time>2017-10-02T10:42:49Z</time>
      </trkpt>
      <trkpt lat="44.31497" lon="5.17016">
        <ele>810.05</ele>
        <time>2017-10-02T10:43:23Z</time>
      </trkpt>
      <trkpt lat="44.31497" lon="5.17018">
        <ele>810.05</ele>
        <time>2017-10-02T10:43:53Z</time>
      </trkpt>
      <trkpt lat="44.31499" lon="5.17016">
        <ele>810.53</ele>
        <time>2017-10-02T10:44:27Z</time>
      </trkpt>
      <trkpt lat="44.31499" lon="5.17017">
        <ele>811.49</ele>
        <time>2017-10-02T10:44:56Z</time>
      </trkpt>
      <trkpt lat="44.31498" lon="5.17015">
        <ele>811.97</ele>
        <time>2017-10-02T10:45:28Z</time>
      </trkpt>
      <trkpt lat="44.31499" lon="5.17016">
        <ele>811.97</ele>
        <time>2017-10-02T10:46:08Z</time>
      </trkpt>
      <trkpt lat="44.31497" lon="5.17017">
        <ele>811.97</ele>
        <time>2017-10-02T10:46:38Z</time>
      </trkpt>
      <trkpt lat="44.31498" lon="5.17015">
        <ele>811.97</ele>
        <time>2017-10-02T10:47:13Z</time>
      </trkpt>
      <trkpt lat="44.31498" lon="5.17017">
        <ele>811.97</ele>
        <time>2017-10-02T10:47:49Z</time>
      </trkpt>
      <trkpt lat="44.31498" lon="5.17015">
        <ele>811.97</ele>
        <time>2017-10-02T10:48:26Z</time>
      </trkpt>
      <trkpt lat="44.31499" lon="5.17015">
        <ele>812.45</ele>
        <time>2017-10-02T10:48:56Z</time>
      </trkpt>
      <trkpt lat="44.31499" lon="5.17013">
        <ele>812.45</ele>
        <time>2017-10-02T10:49:38Z</time>
      </trkpt>
      <trkpt lat="44.31498" lon="5.17014">
        <ele>812.45</ele>
        <time>2017-10-02T10:50:11Z</time>
      </trkpt>
      <trkpt lat="44.31498" lon="5.17015">
        <ele>812.45</ele>
        <time>2017-10-02T10:50:53Z</time>
      </trkpt>
      <trkpt lat="44.315" lon="5.17015">
        <ele>811.49</ele>
        <time>2017-10-02T10:51:31Z</time>
      </trkpt>
      <trkpt lat="44.315" lon="5.17015">
        <ele>811.97</ele>
        <time>2017-10-02T10:52:07Z</time>
      </trkpt>
      <trkpt lat="44.31498" lon="5.17014">
        <ele>811.49</ele>
        <time>2017-10-02T10:52:37Z</time>
      </trkpt>
      <trkpt lat="44.31497" lon="5.17015">
        <ele>811.49</ele>
        <time>2017-10-02T10:53:18Z</time>
      </trkpt>
      <trkpt lat="44.31498" lon="5.17015">
        <ele>811.49</ele>
        <time>2017-10-02T10:53:52Z</time>
      </trkpt>
      <trkpt lat="44.31497" lon="5.17013">
        <ele>811.97</ele>
        <time>2017-10-02T10:54:34Z</time>
      </trkpt>
      <trkpt lat="44.31498" lon="5.17014">
        <ele>811.97</ele>
        <time>2017-10-02T10:55:12Z</time>
      </trkpt>
      <trkpt lat="44.315" lon="5.17013">
        <ele>811.97</ele>
        <time>2017-10-02T10:55:53Z</time>
      </trkpt>
      <trkpt lat="44.31498" lon="5.17014">
        <ele>812.45</ele>
        <time>2017-10-02T10:56:29Z</time>
      </trkpt>
      <trkpt lat="44.31499" lon="5.17013">
        <ele>811.97</ele>
        <time>2017-10-02T10:57:01Z</time>
      </trkpt>
      <trkpt lat="44.31499" lon="5.17015">
        <ele>812.45</ele>
        <time>2017-10-02T10:57:43Z</time>
      </trkpt>
      <trkpt lat="44.31499" lon="5.17015">
        <ele>812.45</ele>
        <time>2017-10-02T10:58:19Z</time>
      </trkpt>
      <trkpt lat="44.31499" lon="5.17015">
        <ele>812.45</ele>
        <time>2017-10-02T10:58:54Z</time>
      </trkpt>
      <trkpt lat="44.31499" lon="5.17014">
        <ele>812.93</ele>
        <time>2017-10-02T10:59:37Z</time>
      </trkpt>
      <trkpt lat="44.315" lon="5.17013">
        <ele>812.93</ele>
        <time>2017-10-02T11:00:11Z</time>
      </trkpt>
      <trkpt lat="44.31502" lon="5.17013">
        <ele>812.93</ele>
        <time>2017-10-02T11:00:30Z</time>
      </trkpt>
      <trkpt lat="44.31503" lon="5.17014">
        <ele>814.37</ele>
        <time>2017-10-02T11:00:52Z</time>
      </trkpt>
      <trkpt lat="44.315" lon="5.1701">
        <ele>813.89</ele>
        <time>2017-10-02T11:01:22Z</time>
      </trkpt>
      <trkpt lat="44.31501" lon="5.17011">
        <ele>813.89</ele>
        <time>2017-10-02T11:01:52Z</time>
      </trkpt>
      <trkpt lat="44.31502" lon="5.1701">
        <ele>813.89</ele>
        <time>2017-10-02T11:02:13Z</time>
      </trkpt>
      <trkpt lat="44.315" lon="5.17012">
        <ele>813.89</ele>
        <time>2017-10-02T11:02:30Z</time>
      </trkpt>
      <trkpt lat="44.31503" lon="5.17018">
        <ele>812.45</ele>
        <time>2017-10-02T11:02:57Z</time>
      </trkpt>
      <trkpt lat="44.31503" lon="5.17018">
        <ele>815.82</ele>
        <time>2017-10-02T11:02:58Z</time>
      </trkpt>
      <trkpt lat="44.31502" lon="5.17018">
        <ele>811.97</ele>
        <time>2017-10-02T11:03:01Z</time>
      </trkpt>
      <trkpt lat="44.31501" lon="5.17013">
        <ele>814.37</ele>
        <time>2017-10-02T11:03:35Z</time>
      </trkpt>
      <trkpt lat="44.31501" lon="5.1701">
        <ele>813.89</ele>
        <time>2017-10-02T11:04:03Z</time>
      </trkpt>
      <trkpt lat="44.31502" lon="5.17011">
        <ele>813.89</ele>
        <time>2017-10-02T11:04:40Z</time>
      </trkpt>
      <trkpt lat="44.31503" lon="5.17014">
        <ele>813.89</ele>
        <time>2017-10-02T11:05:21Z</time>
      </trkpt>
      <trkpt lat="44.31503" lon="5.17013">
        <ele>813.89</ele>
        <time>2017-10-02T11:05:44Z</time>
      </trkpt>
      <trkpt lat="44.31503" lon="5.17013">
        <ele>815.34</ele>
        <time>2017-10-02T11:05:46Z</time>
      </trkpt>
      <trkpt lat="44.31501" lon="5.17015">
        <ele>813.89</ele>
        <time>2017-10-02T11:06:13Z</time>
      </trkpt>
      <trkpt lat="44.31503" lon="5.17024">
        <ele>814.37</ele>
        <time>2017-10-02T11:06:41Z</time>
      </trkpt>
      <trkpt lat="44.31499" lon="5.1702">
        <ele>814.37</ele>
        <time>2017-10-02T11:07:13Z</time>
      </trkpt>
      <trkpt lat="44.31498" lon="5.17019">
        <ele>815.34</ele>
        <time>2017-10-02T11:07:29Z</time>
      </trkpt>
      <trkpt lat="44.31499" lon="5.17018">
        <ele>813.41</ele>
        <time>2017-10-02T11:07:38Z</time>
      </trkpt>
      <trkpt lat="44.31501" lon="5.17014">
        <ele>814.37</ele>
        <time>2017-10-02T11:08:03Z</time>
      </trkpt>
      <trkpt lat="44.315" lon="5.17014">
        <ele>814.37</ele>
        <time>2017-10-02T11:08:31Z</time>
      </trkpt>
      <trkpt lat="44.31501" lon="5.17019">
        <ele>814.85</ele>
        <time>2017-10-02T11:09:06Z</time>
      </trkpt>
      <trkpt lat="44.31497" lon="5.17023">
        <ele>814.85</ele>
        <time>2017-10-02T11:09:34Z</time>
      </trkpt>
      <trkpt lat="44.315" lon="5.17017">
        <ele>816.3</ele>
        <time>2017-10-02T11:09:48Z</time>
      </trkpt>
      <trkpt lat="44.315" lon="5.17024">
        <ele>815.34</ele>
        <time>2017-10-02T11:10:14Z</time>
      </trkpt>
      <trkpt lat="44.315" lon="5.17023">
        <ele>811.97</ele>
        <time>2017-10-02T11:10:33Z</time>
      </trkpt>
      <trkpt lat="44.315" lon="5.17022">
        <ele>816.78</ele>
        <time>2017-10-02T11:10:34Z</time>
      </trkpt>
      <trkpt lat="44.315" lon="5.17022">
        <ele>816.3</ele>
        <time>2017-10-02T11:10:54Z</time>
      </trkpt>
      <trkpt lat="44.31503" lon="5.17026">
        <ele>816.78</ele>
        <time>2017-10-02T11:11:27Z</time>
      </trkpt>
      <trkpt lat="44.31503" lon="5.17028">
        <ele>818.22</ele>
        <time>2017-10-02T11:11:40Z</time>
      </trkpt>
      <trkpt lat="44.31502" lon="5.17028">
        <ele>816.78</ele>
        <time>2017-10-02T11:11:42Z</time>
      </trkpt>
      <trkpt lat="44.31502" lon="5.17029">
        <ele>814.37</ele>
        <time>2017-10-02T11:11:44Z</time>
      </trkpt>
      <trkpt lat="44.31503" lon="5.1703">
        <ele>818.7</ele>
        <time>2017-10-02T11:11:45Z</time>
      </trkpt>
      <trkpt lat="44.31502" lon="5.17028">
        <ele>817.26</ele>
        <time>2017-10-02T11:11:48Z</time>
      </trkpt>
      <trkpt lat="44.315" lon="5.17018">
        <ele>816.3</ele>
        <time>2017-10-02T11:12:10Z</time>
      </trkpt>
      <trkpt lat="44.31499" lon="5.17015">
        <ele>820.62</ele>
        <time>2017-10-02T11:12:36Z</time>
      </trkpt>
      <trkpt lat="44.31499" lon="5.17013">
        <ele>816.78</ele>
        <time>2017-10-02T11:12:41Z</time>
      </trkpt>
      <trkpt lat="44.31502" lon="5.17019">
        <ele>816.78</ele>
        <time>2017-10-02T11:12:56Z</time>
      </trkpt>
      <trkpt lat="44.31501" lon="5.17019">
        <ele>815.82</ele>
        <time>2017-10-02T11:13:12Z</time>
      </trkpt>
      <trkpt lat="44.31502" lon="5.17018">
        <ele>817.26</ele>
        <time>2017-10-02T11:13:42Z</time>
      </trkpt>
      <trkpt lat="44.31498" lon="5.17019">
        <ele>817.26</ele>
        <time>2017-10-02T11:14:02Z</time>
      </trkpt>
      <trkpt lat="44.31504" lon="5.17018">
        <ele>817.74</ele>
        <time>2017-10-02T11:14:17Z</time>
      </trkpt>
      <trkpt lat="44.31513" lon="5.17013">
        <ele>817.74</ele>
        <time>2017-10-02T11:14:32Z</time>
      </trkpt>
      <trkpt lat="44.31519" lon="5.17">
        <ele>815.82</ele>
        <time>2017-10-02T11:14:50Z</time>
      </trkpt>
      <trkpt lat="44.31527" lon="5.16989">
        <ele>813.89</ele>
        <time>2017-10-02T11:15:08Z</time>
      </trkpt>
      <trkpt lat="44.31535" lon="5.16977">
        <ele>811.97</ele>
        <time>2017-10-02T11:15:22Z</time>
      </trkpt>
      <trkpt lat="44.31539" lon="5.16962">
        <ele>810.05</ele>
        <time>2017-10-02T11:15:37Z</time>
      </trkpt>
      <trkpt lat="44.31538" lon="5.16943">
        <ele>809.09</ele>
        <time>2017-10-02T11:15:52Z</time>
      </trkpt>
      <trkpt lat="44.31536" lon="5.16928">
        <ele>808.13</ele>
        <time>2017-10-02T11:16:08Z</time>
      </trkpt>
      <trkpt lat="44.31534" lon="5.16909">
        <ele>806.68</ele>
        <time>2017-10-02T11:16:23Z</time>
      </trkpt>
      <trkpt lat="44.31534" lon="5.16889">
        <ele>805.72</ele>
        <time>2017-10-02T11:16:36Z</time>
      </trkpt>
      <trkpt lat="44.31533" lon="5.16867">
        <ele>804.76</ele>
        <time>2017-10-02T11:16:54Z</time>
      </trkpt>
      <trkpt lat="44.31533" lon="5.16844">
        <ele>803.32</ele>
        <time>2017-10-02T11:17:10Z</time>
      </trkpt>
      <trkpt lat="44.31534" lon="5.16832">
        <ele>802.36</ele>
        <time>2017-10-02T11:17:23Z</time>
      </trkpt>
      <trkpt lat="44.31535" lon="5.16812">
        <ele>801.4</ele>
        <time>2017-10-02T11:17:37Z</time>
      </trkpt>
      <trkpt lat="44.31538" lon="5.16793">
        <ele>798.99</ele>
        <time>2017-10-02T11:17:54Z</time>
      </trkpt>
      <trkpt lat="44.31543" lon="5.16783">
        <ele>796.59</ele>
        <time>2017-10-02T11:18:10Z</time>
      </trkpt>
      <trkpt lat="44.31545" lon="5.16772">
        <ele>794.67</ele>
        <time>2017-10-02T11:18:25Z</time>
      </trkpt>
      <trkpt lat="44.31547" lon="5.1676">
        <ele>793.22</ele>
        <time>2017-10-02T11:18:39Z</time>
      </trkpt>
      <trkpt lat="44.31549" lon="5.1675">
        <ele>792.26</ele>
        <time>2017-10-02T11:18:52Z</time>
      </trkpt>
      <trkpt lat="44.31555" lon="5.16735">
        <ele>790.34</ele>
        <time>2017-10-02T11:19:08Z</time>
      </trkpt>
      <trkpt lat="44.31555" lon="5.16727">
        <ele>788.9</ele>
        <time>2017-10-02T11:19:23Z</time>
      </trkpt>
      <trkpt lat="44.31556" lon="5.16713">
        <ele>787.46</ele>
        <time>2017-10-02T11:19:38Z</time>
      </trkpt>
      <trkpt lat="44.31557" lon="5.16696">
        <ele>786.98</ele>
        <time>2017-10-02T11:19:53Z</time>
      </trkpt>
      <trkpt lat="44.31556" lon="5.16678">
        <ele>786.5</ele>
        <time>2017-10-02T11:20:09Z</time>
      </trkpt>
      <trkpt lat="44.31551" lon="5.16661">
        <ele>786.5</ele>
        <time>2017-10-02T11:20:24Z</time>
      </trkpt>
      <trkpt lat="44.31546" lon="5.16646">
        <ele>785.53</ele>
        <time>2017-10-02T11:20:39Z</time>
      </trkpt>
      <trkpt lat="44.31541" lon="5.16631">
        <ele>784.57</ele>
        <time>2017-10-02T11:20:55Z</time>
      </trkpt>
      <trkpt lat="44.31541" lon="5.16617">
        <ele>783.13</ele>
        <time>2017-10-02T11:21:09Z</time>
      </trkpt>
      <trkpt lat="44.31543" lon="5.16602">
        <ele>781.69</ele>
        <time>2017-10-02T11:21:28Z</time>
      </trkpt>
      <trkpt lat="44.31546" lon="5.1659">
        <ele>780.25</ele>
        <time>2017-10-02T11:21:46Z</time>
      </trkpt>
      <trkpt lat="44.31549" lon="5.16574">
        <ele>779.77</ele>
        <time>2017-10-02T11:22:02Z</time>
      </trkpt>
      <trkpt lat="44.31552" lon="5.16558">
        <ele>778.32</ele>
        <time>2017-10-02T11:22:18Z</time>
      </trkpt>
      <trkpt lat="44.3155" lon="5.16544">
        <ele>776.4</ele>
        <time>2017-10-02T11:22:33Z</time>
      </trkpt>
      <trkpt lat="44.31552" lon="5.16524">
        <ele>774.48</ele>
        <time>2017-10-02T11:22:49Z</time>
      </trkpt>
      <trkpt lat="44.31551" lon="5.16506">
        <ele>773.52</ele>
        <time>2017-10-02T11:23:02Z</time>
      </trkpt>
      <trkpt lat="44.31551" lon="5.16488">
        <ele>772.56</ele>
        <time>2017-10-02T11:23:16Z</time>
      </trkpt>
      <trkpt lat="44.31553" lon="5.16468">
        <ele>771.11</ele>
        <time>2017-10-02T11:23:32Z</time>
      </trkpt>
      <trkpt lat="44.31554" lon="5.16455">
        <ele>769.67</ele>
        <time>2017-10-02T11:23:47Z</time>
      </trkpt>
      <trkpt lat="44.31556" lon="5.16451">
        <ele>768.71</ele>
        <time>2017-10-02T11:24:10Z</time>
      </trkpt>
      <trkpt lat="44.31558" lon="5.16429">
        <ele>767.27</ele>
        <time>2017-10-02T11:24:28Z</time>
      </trkpt>
      <trkpt lat="44.31562" lon="5.16411">
        <ele>766.31</ele>
        <time>2017-10-02T11:24:43Z</time>
      </trkpt>
      <trkpt lat="44.31566" lon="5.16394">
        <ele>765.35</ele>
        <time>2017-10-02T11:24:56Z</time>
      </trkpt>
      <trkpt lat="44.31573" lon="5.1637">
        <ele>763.9</ele>
        <time>2017-10-02T11:25:13Z</time>
      </trkpt>
      <trkpt lat="44.31581" lon="5.16352">
        <ele>761.98</ele>
        <time>2017-10-02T11:25:30Z</time>
      </trkpt>
      <trkpt lat="44.31588" lon="5.16338">
        <ele>760.54</ele>
        <time>2017-10-02T11:25:45Z</time>
      </trkpt>
      <trkpt lat="44.31593" lon="5.16319">
        <ele>759.58</ele>
        <time>2017-10-02T11:26:00Z</time>
      </trkpt>
      <trkpt lat="44.31597" lon="5.16303">
        <ele>757.66</ele>
        <time>2017-10-02T11:26:15Z</time>
      </trkpt>
      <trkpt lat="44.31601" lon="5.1629">
        <ele>756.69</ele>
        <time>2017-10-02T11:26:28Z</time>
      </trkpt>
      <trkpt lat="44.31606" lon="5.16279">
        <ele>755.25</ele>
        <time>2017-10-02T11:26:41Z</time>
      </trkpt>
      <trkpt lat="44.31612" lon="5.16269">
        <ele>753.81</ele>
        <time>2017-10-02T11:26:54Z</time>
      </trkpt>
      <trkpt lat="44.31609" lon="5.16258">
        <ele>752.85</ele>
        <time>2017-10-02T11:27:08Z</time>
      </trkpt>
      <trkpt lat="44.31603" lon="5.16259">
        <ele>751.41</ele>
        <time>2017-10-02T11:27:25Z</time>
      </trkpt>
      <trkpt lat="44.31602" lon="5.1626">
        <ele>750.93</ele>
        <time>2017-10-02T11:27:46Z</time>
      </trkpt>
      <trkpt lat="44.31602" lon="5.16259">
        <ele>750.93</ele>
        <time>2017-10-02T11:28:15Z</time>
      </trkpt>
      <trkpt lat="44.31603" lon="5.16257">
        <ele>750.93</ele>
        <time>2017-10-02T11:28:44Z</time>
      </trkpt>
      <trkpt lat="44.31604" lon="5.1626">
        <ele>750.93</ele>
        <time>2017-10-02T11:29:07Z</time>
      </trkpt>
      <trkpt lat="44.31603" lon="5.16259">
        <ele>750.45</ele>
        <time>2017-10-02T11:29:22Z</time>
      </trkpt>
      <trkpt lat="44.31598" lon="5.16262">
        <ele>750.45</ele>
        <time>2017-10-02T11:29:39Z</time>
      </trkpt>
      <trkpt lat="44.31586" lon="5.16263">
        <ele>748.52</ele>
        <time>2017-10-02T11:29:55Z</time>
      </trkpt>
      <trkpt lat="44.3157" lon="5.16263">
        <ele>746.12</ele>
        <time>2017-10-02T11:30:14Z</time>
      </trkpt>
      <trkpt lat="44.31558" lon="5.16263">
        <ele>744.2</ele>
        <time>2017-10-02T11:30:29Z</time>
      </trkpt>
      <trkpt lat="44.31545" lon="5.16263">
        <ele>742.76</ele>
        <time>2017-10-02T11:30:45Z</time>
      </trkpt>
      <trkpt lat="44.31533" lon="5.16258">
        <ele>739.39</ele>
        <time>2017-10-02T11:31:02Z</time>
      </trkpt>
      <trkpt lat="44.31523" lon="5.16248">
        <ele>736.03</ele>
        <time>2017-10-02T11:31:19Z</time>
      </trkpt>
      <trkpt lat="44.31512" lon="5.16239">
        <ele>733.62</ele>
        <time>2017-10-02T11:31:36Z</time>
      </trkpt>
      <trkpt lat="44.31502" lon="5.16233">
        <ele>732.18</ele>
        <time>2017-10-02T11:31:49Z</time>
      </trkpt>
      <trkpt lat="44.31483" lon="5.16227">
        <ele>730.74</ele>
        <time>2017-10-02T11:32:11Z</time>
      </trkpt>
      <trkpt lat="44.31473" lon="5.1622">
        <ele>728.34</ele>
        <time>2017-10-02T11:32:27Z</time>
      </trkpt>
      <trkpt lat="44.31474" lon="5.16206">
        <ele>725.93</ele>
        <time>2017-10-02T11:32:41Z</time>
      </trkpt>
      <trkpt lat="44.31473" lon="5.16188">
        <ele>723.05</ele>
        <time>2017-10-02T11:32:58Z</time>
      </trkpt>
      <trkpt lat="44.31472" lon="5.16175">
        <ele>720.65</ele>
        <time>2017-10-02T11:33:13Z</time>
      </trkpt>
      <trkpt lat="44.31468" lon="5.16162">
        <ele>717.76</ele>
        <time>2017-10-02T11:33:29Z</time>
      </trkpt>
      <trkpt lat="44.31464" lon="5.16148">
        <ele>715.84</ele>
        <time>2017-10-02T11:33:43Z</time>
      </trkpt>
      <trkpt lat="44.31459" lon="5.1613">
        <ele>713.44</ele>
        <time>2017-10-02T11:34:00Z</time>
      </trkpt>
      <trkpt lat="44.31453" lon="5.16114">
        <ele>711.03</ele>
        <time>2017-10-02T11:34:15Z</time>
      </trkpt>
      <trkpt lat="44.31451" lon="5.16101">
        <ele>709.11</ele>
        <time>2017-10-02T11:34:31Z</time>
      </trkpt>
      <trkpt lat="44.31447" lon="5.16088">
        <ele>705.75</ele>
        <time>2017-10-02T11:34:48Z</time>
      </trkpt>
      <trkpt lat="44.31441" lon="5.16077">
        <ele>703.34</ele>
        <time>2017-10-02T11:35:04Z</time>
      </trkpt>
      <trkpt lat="44.31435" lon="5.16063">
        <ele>700.46</ele>
        <time>2017-10-02T11:35:21Z</time>
      </trkpt>
      <trkpt lat="44.31435" lon="5.16051">
        <ele>697.57</ele>
        <time>2017-10-02T11:35:37Z</time>
      </trkpt>
      <trkpt lat="44.31436" lon="5.16041">
        <ele>695.65</ele>
        <time>2017-10-02T11:35:50Z</time>
      </trkpt>
      <trkpt lat="44.31434" lon="5.16028">
        <ele>693.73</ele>
        <time>2017-10-02T11:36:04Z</time>
      </trkpt>
      <trkpt lat="44.31434" lon="5.16015">
        <ele>691.33</ele>
        <time>2017-10-02T11:36:20Z</time>
      </trkpt>
      <trkpt lat="44.31434" lon="5.16001">
        <ele>689.4</ele>
        <time>2017-10-02T11:36:36Z</time>
      </trkpt>
      <trkpt lat="44.31433" lon="5.15984">
        <ele>687</ele>
        <time>2017-10-02T11:36:53Z</time>
      </trkpt>
      <trkpt lat="44.31433" lon="5.15967">
        <ele>684.12</ele>
        <time>2017-10-02T11:37:14Z</time>
      </trkpt>
      <trkpt lat="44.3143" lon="5.15952">
        <ele>681.23</ele>
        <time>2017-10-02T11:37:33Z</time>
      </trkpt>
      <trkpt lat="44.31429" lon="5.15937">
        <ele>678.35</ele>
        <time>2017-10-02T11:37:50Z</time>
      </trkpt>
      <trkpt lat="44.31428" lon="5.15923">
        <ele>675.94</ele>
        <time>2017-10-02T11:38:07Z</time>
      </trkpt>
      <trkpt lat="44.31426" lon="5.1591">
        <ele>673.54</ele>
        <time>2017-10-02T11:38:21Z</time>
      </trkpt>
      <trkpt lat="44.31424" lon="5.15898">
        <ele>671.14</ele>
        <time>2017-10-02T11:38:36Z</time>
      </trkpt>
      <trkpt lat="44.31422" lon="5.15885">
        <ele>669.22</ele>
        <time>2017-10-02T11:38:50Z</time>
      </trkpt>
      <trkpt lat="44.31421" lon="5.1588">
        <ele>666.81</ele>
        <time>2017-10-02T11:39:09Z</time>
      </trkpt>
      <trkpt lat="44.31422" lon="5.15877">
        <ele>668.25</ele>
        <time>2017-10-02T11:39:34Z</time>
      </trkpt>
      <trkpt lat="44.3142" lon="5.15875">
        <ele>668.25</ele>
        <time>2017-10-02T11:39:52Z</time>
      </trkpt>
      <trkpt lat="44.31418" lon="5.15866">
        <ele>666.81</ele>
        <time>2017-10-02T11:40:03Z</time>
      </trkpt>
      <trkpt lat="44.31419" lon="5.15851">
        <ele>664.41</ele>
        <time>2017-10-02T11:40:21Z</time>
      </trkpt>
      <trkpt lat="44.31417" lon="5.15837">
        <ele>662.01</ele>
        <time>2017-10-02T11:40:39Z</time>
      </trkpt>
      <trkpt lat="44.31414" lon="5.15819">
        <ele>659.12</ele>
        <time>2017-10-02T11:40:57Z</time>
      </trkpt>
      <trkpt lat="44.31415" lon="5.15806">
        <ele>657.2</ele>
        <time>2017-10-02T11:41:11Z</time>
      </trkpt>
      <trkpt lat="44.31413" lon="5.15788">
        <ele>654.31</ele>
        <time>2017-10-02T11:41:28Z</time>
      </trkpt>
      <trkpt lat="44.3141" lon="5.15769">
        <ele>652.39</ele>
        <time>2017-10-02T11:41:44Z</time>
      </trkpt>
      <trkpt lat="44.31408" lon="5.15757">
        <ele>650.95</ele>
        <time>2017-10-02T11:41:58Z</time>
      </trkpt>
      <trkpt lat="44.31405" lon="5.15741">
        <ele>649.03</ele>
        <time>2017-10-02T11:42:13Z</time>
      </trkpt>
      <trkpt lat="44.31403" lon="5.15721">
        <ele>646.62</ele>
        <time>2017-10-02T11:42:30Z</time>
      </trkpt>
      <trkpt lat="44.31402" lon="5.15705">
        <ele>644.7</ele>
        <time>2017-10-02T11:42:46Z</time>
      </trkpt>
      <trkpt lat="44.31399" lon="5.15687">
        <ele>642.78</ele>
        <time>2017-10-02T11:43:03Z</time>
      </trkpt>
      <trkpt lat="44.31394" lon="5.15671">
        <ele>641.34</ele>
        <time>2017-10-02T11:43:18Z</time>
      </trkpt>
      <trkpt lat="44.31391" lon="5.1565">
        <ele>638.45</ele>
        <time>2017-10-02T11:43:35Z</time>
      </trkpt>
      <trkpt lat="44.31388" lon="5.15632">
        <ele>636.53</ele>
        <time>2017-10-02T11:43:54Z</time>
      </trkpt>
      <trkpt lat="44.31387" lon="5.15615">
        <ele>634.13</ele>
        <time>2017-10-02T11:44:11Z</time>
      </trkpt>
      <trkpt lat="44.31385" lon="5.15596">
        <ele>631.24</ele>
        <time>2017-10-02T11:44:28Z</time>
      </trkpt>
      <trkpt lat="44.31384" lon="5.15583">
        <ele>630.76</ele>
        <time>2017-10-02T11:44:44Z</time>
      </trkpt>
      <trkpt lat="44.31382" lon="5.15571">
        <ele>628.36</ele>
        <time>2017-10-02T11:44:59Z</time>
      </trkpt>
      <trkpt lat="44.31381" lon="5.15557">
        <ele>625.96</ele>
        <time>2017-10-02T11:45:16Z</time>
      </trkpt>
      <trkpt lat="44.31378" lon="5.15537">
        <ele>624.03</ele>
        <time>2017-10-02T11:45:33Z</time>
      </trkpt>
      <trkpt lat="44.31376" lon="5.15522">
        <ele>622.11</ele>
        <time>2017-10-02T11:45:49Z</time>
      </trkpt>
      <trkpt lat="44.31375" lon="5.15509">
        <ele>620.19</ele>
        <time>2017-10-02T11:46:03Z</time>
      </trkpt>
      <trkpt lat="44.31375" lon="5.15495">
        <ele>617.78</ele>
        <time>2017-10-02T11:46:19Z</time>
      </trkpt>
      <trkpt lat="44.31375" lon="5.15481">
        <ele>615.86</ele>
        <time>2017-10-02T11:46:35Z</time>
      </trkpt>
      <trkpt lat="44.31373" lon="5.15464">
        <ele>613.46</ele>
        <time>2017-10-02T11:46:52Z</time>
      </trkpt>
      <trkpt lat="44.31373" lon="5.15449">
        <ele>611.06</ele>
        <time>2017-10-02T11:47:07Z</time>
      </trkpt>
      <trkpt lat="44.31374" lon="5.15437">
        <ele>608.17</ele>
        <time>2017-10-02T11:47:24Z</time>
      </trkpt>
      <trkpt lat="44.31372" lon="5.15422">
        <ele>606.25</ele>
        <time>2017-10-02T11:47:40Z</time>
      </trkpt>
      <trkpt lat="44.3137" lon="5.15404">
        <ele>603.36</ele>
        <time>2017-10-02T11:47:58Z</time>
      </trkpt>
      <trkpt lat="44.31368" lon="5.15387">
        <ele>601.44</ele>
        <time>2017-10-02T11:48:16Z</time>
      </trkpt>
      <trkpt lat="44.31367" lon="5.15376">
        <ele>600</ele>
        <time>2017-10-02T11:48:33Z</time>
      </trkpt>
      <trkpt lat="44.31367" lon="5.15375">
        <ele>600</ele>
        <time>2017-10-02T11:48:45Z</time>
      </trkpt>
      <trkpt lat="44.31367" lon="5.15375">
        <ele>599.52</ele>
        <time>2017-10-02T11:49:08Z</time>
      </trkpt>
      <trkpt lat="44.31365" lon="5.15377">
        <ele>600.96</ele>
        <time>2017-10-02T11:49:17Z</time>
      </trkpt>
      <trkpt lat="44.31365" lon="5.15369">
        <ele>599.52</ele>
        <time>2017-10-02T11:49:32Z</time>
      </trkpt>
      <trkpt lat="44.31362" lon="5.15354">
        <ele>598.08</ele>
        <time>2017-10-02T11:49:47Z</time>
      </trkpt>
      <trkpt lat="44.31357" lon="5.15335">
        <ele>596.15</ele>
        <time>2017-10-02T11:50:05Z</time>
      </trkpt>
      <trkpt lat="44.31354" lon="5.15317">
        <ele>594.23</ele>
        <time>2017-10-02T11:50:22Z</time>
      </trkpt>
      <trkpt lat="44.31351" lon="5.153">
        <ele>592.31</ele>
        <time>2017-10-02T11:50:39Z</time>
      </trkpt>
      <trkpt lat="44.31352" lon="5.15287">
        <ele>590.39</ele>
        <time>2017-10-02T11:50:54Z</time>
      </trkpt>
      <trkpt lat="44.31349" lon="5.15267">
        <ele>588.95</ele>
        <time>2017-10-02T11:51:12Z</time>
      </trkpt>
      <trkpt lat="44.31344" lon="5.15247">
        <ele>586.54</ele>
        <time>2017-10-02T11:51:30Z</time>
      </trkpt>
      <trkpt lat="44.31343" lon="5.15236">
        <ele>585.1</ele>
        <time>2017-10-02T11:51:44Z</time>
      </trkpt>
      <trkpt lat="44.3134" lon="5.15212">
        <ele>584.14</ele>
        <time>2017-10-02T11:52:02Z</time>
      </trkpt>
      <trkpt lat="44.31337" lon="5.15192">
        <ele>581.25</ele>
        <time>2017-10-02T11:52:18Z</time>
      </trkpt>
      <trkpt lat="44.31333" lon="5.15176">
        <ele>579.33</ele>
        <time>2017-10-02T11:52:32Z</time>
      </trkpt>
      <trkpt lat="44.3133" lon="5.15155">
        <ele>576.93</ele>
        <time>2017-10-02T11:52:51Z</time>
      </trkpt>
      <trkpt lat="44.31324" lon="5.1514">
        <ele>574.04</ele>
        <time>2017-10-02T11:53:08Z</time>
      </trkpt>
      <trkpt lat="44.31318" lon="5.15122">
        <ele>571.64</ele>
        <time>2017-10-02T11:53:25Z</time>
      </trkpt>
      <trkpt lat="44.31315" lon="5.15104">
        <ele>568.76</ele>
        <time>2017-10-02T11:53:43Z</time>
      </trkpt>
      <trkpt lat="44.31315" lon="5.15094">
        <ele>566.83</ele>
        <time>2017-10-02T11:53:57Z</time>
      </trkpt>
      <trkpt lat="44.31311" lon="5.15077">
        <ele>563.95</ele>
        <time>2017-10-02T11:54:14Z</time>
      </trkpt>
      <trkpt lat="44.31308" lon="5.15066">
        <ele>561.55</ele>
        <time>2017-10-02T11:54:27Z</time>
      </trkpt>
      <trkpt lat="44.31306" lon="5.15051">
        <ele>559.62</ele>
        <time>2017-10-02T11:54:44Z</time>
      </trkpt>
      <trkpt lat="44.31307" lon="5.15034">
        <ele>556.74</ele>
        <time>2017-10-02T11:55:00Z</time>
      </trkpt>
      <trkpt lat="44.31308" lon="5.15027">
        <ele>555.3</ele>
        <time>2017-10-02T11:55:12Z</time>
      </trkpt>
      <trkpt lat="44.31308" lon="5.15022">
        <ele>553.86</ele>
        <time>2017-10-02T11:55:25Z</time>
      </trkpt>
      <trkpt lat="44.31307" lon="5.15009">
        <ele>552.41</ele>
        <time>2017-10-02T11:55:43Z</time>
      </trkpt>
      <trkpt lat="44.31303" lon="5.14986">
        <ele>550.01</ele>
        <time>2017-10-02T11:55:59Z</time>
      </trkpt>
      <trkpt lat="44.31302" lon="5.14979">
        <ele>549.05</ele>
        <time>2017-10-02T11:56:05Z</time>
      </trkpt>
      <trkpt lat="44.31297" lon="5.1496">
        <ele>546.65</ele>
        <time>2017-10-02T11:56:20Z</time>
      </trkpt>
      <trkpt lat="44.31292" lon="5.14942">
        <ele>543.76</ele>
        <time>2017-10-02T11:56:36Z</time>
      </trkpt>
      <trkpt lat="44.31288" lon="5.14925">
        <ele>542.32</ele>
        <time>2017-10-02T11:56:52Z</time>
      </trkpt>
      <trkpt lat="44.31282" lon="5.14908">
        <ele>540.88</ele>
        <time>2017-10-02T11:57:07Z</time>
      </trkpt>
      <trkpt lat="44.31275" lon="5.1489">
        <ele>539.44</ele>
        <time>2017-10-02T11:57:26Z</time>
      </trkpt>
      <trkpt lat="44.31268" lon="5.14869">
        <ele>537.03</ele>
        <time>2017-10-02T11:57:44Z</time>
      </trkpt>
      <trkpt lat="44.31261" lon="5.1485">
        <ele>535.59</ele>
        <time>2017-10-02T11:58:00Z</time>
      </trkpt>
      <trkpt lat="44.31257" lon="5.14832">
        <ele>533.67</ele>
        <time>2017-10-02T11:58:17Z</time>
      </trkpt>
      <trkpt lat="44.31254" lon="5.14807">
        <ele>532.71</ele>
        <time>2017-10-02T11:58:36Z</time>
      </trkpt>
      <trkpt lat="44.31249" lon="5.14787">
        <ele>530.79</ele>
        <time>2017-10-02T11:58:54Z</time>
      </trkpt>
      <trkpt lat="44.31243" lon="5.14764">
        <ele>528.38</ele>
        <time>2017-10-02T11:59:14Z</time>
      </trkpt>
      <trkpt lat="44.31237" lon="5.14747">
        <ele>526.94</ele>
        <time>2017-10-02T11:59:28Z</time>
      </trkpt>
      <trkpt lat="44.31229" lon="5.14731">
        <ele>525.02</ele>
        <time>2017-10-02T11:59:42Z</time>
      </trkpt>
      <trkpt lat="44.31218" lon="5.14716">
        <ele>522.61</ele>
        <time>2017-10-02T12:00:00Z</time>
      </trkpt>
      <trkpt lat="44.31208" lon="5.14707">
        <ele>521.17</ele>
        <time>2017-10-02T12:00:14Z</time>
      </trkpt>
      <trkpt lat="44.312" lon="5.14694">
        <ele>519.25</ele>
        <time>2017-10-02T12:00:28Z</time>
      </trkpt>
      <trkpt lat="44.31189" lon="5.14675">
        <ele>516.37</ele>
        <time>2017-10-02T12:00:48Z</time>
      </trkpt>
      <trkpt lat="44.31177" lon="5.14659">
        <ele>514.92</ele>
        <time>2017-10-02T12:01:05Z</time>
      </trkpt>
      <trkpt lat="44.31162" lon="5.1464">
        <ele>513.96</ele>
        <time>2017-10-02T12:01:25Z</time>
      </trkpt>
      <trkpt lat="44.31148" lon="5.14623">
        <ele>512.52</ele>
        <time>2017-10-02T12:01:44Z</time>
      </trkpt>
      <trkpt lat="44.31135" lon="5.14603">
        <ele>511.56</ele>
        <time>2017-10-02T12:02:02Z</time>
      </trkpt>
      <trkpt lat="44.31125" lon="5.14585">
        <ele>510.6</ele>
        <time>2017-10-02T12:02:19Z</time>
      </trkpt>
      <trkpt lat="44.31117" lon="5.14576">
        <ele>510.12</ele>
        <time>2017-10-02T12:02:30Z</time>
      </trkpt>
      <trkpt lat="44.31102" lon="5.14571">
        <ele>508.67</ele>
        <time>2017-10-02T12:02:46Z</time>
      </trkpt>
      <trkpt lat="44.31094" lon="5.14565">
        <ele>506.75</ele>
        <time>2017-10-02T12:02:57Z</time>
      </trkpt>
      <trkpt lat="44.31092" lon="5.14562">
        <ele>508.19</ele>
        <time>2017-10-02T12:03:00Z</time>
      </trkpt>
      <trkpt lat="44.31079" lon="5.14541">
        <ele>504.83</ele>
        <time>2017-10-02T12:03:20Z</time>
      </trkpt>
      <trkpt lat="44.31066" lon="5.14521">
        <ele>502.91</ele>
        <time>2017-10-02T12:03:38Z</time>
      </trkpt>
      <trkpt lat="44.31055" lon="5.14503">
        <ele>500.5</ele>
        <time>2017-10-02T12:03:56Z</time>
      </trkpt>
      <trkpt lat="44.31045" lon="5.14488">
        <ele>499.06</ele>
        <time>2017-10-02T12:04:12Z</time>
      </trkpt>
      <trkpt lat="44.31033" lon="5.14472">
        <ele>497.14</ele>
        <time>2017-10-02T12:04:31Z</time>
      </trkpt>
      <trkpt lat="44.31023" lon="5.14458">
        <ele>494.74</ele>
        <time>2017-10-02T12:04:48Z</time>
      </trkpt>
      <trkpt lat="44.31008" lon="5.14448">
        <ele>491.85</ele>
        <time>2017-10-02T12:05:07Z</time>
      </trkpt>
      <trkpt lat="44.30993" lon="5.14439">
        <ele>489.45</ele>
        <time>2017-10-02T12:05:27Z</time>
      </trkpt>
      <trkpt lat="44.30982" lon="5.14423">
        <ele>486.56</ele>
        <time>2017-10-02T12:05:45Z</time>
      </trkpt>
      <trkpt lat="44.30979" lon="5.14403">
        <ele>484.16</ele>
        <time>2017-10-02T12:06:03Z</time>
      </trkpt>
      <trkpt lat="44.30978" lon="5.14383">
        <ele>482.24</ele>
        <time>2017-10-02T12:06:19Z</time>
      </trkpt>
      <trkpt lat="44.30978" lon="5.14362">
        <ele>480.32</ele>
        <time>2017-10-02T12:06:36Z</time>
      </trkpt>
      <trkpt lat="44.30967" lon="5.14339">
        <ele>477.91</ele>
        <time>2017-10-02T12:06:56Z</time>
      </trkpt>
      <trkpt lat="44.30953" lon="5.14316">
        <ele>475.99</ele>
        <time>2017-10-02T12:07:16Z</time>
      </trkpt>
      <trkpt lat="44.30941" lon="5.14302">
        <ele>474.07</ele>
        <time>2017-10-02T12:07:34Z</time>
      </trkpt>
      <trkpt lat="44.3093" lon="5.14296">
        <ele>471.66</ele>
        <time>2017-10-02T12:07:49Z</time>
      </trkpt>
      <trkpt lat="44.30925" lon="5.14283">
        <ele>469.26</ele>
        <time>2017-10-02T12:08:03Z</time>
      </trkpt>
      <trkpt lat="44.30922" lon="5.14268">
        <ele>466.86</ele>
        <time>2017-10-02T12:08:18Z</time>
      </trkpt>
      <trkpt lat="44.30915" lon="5.14247">
        <ele>465.42</ele>
        <time>2017-10-02T12:08:34Z</time>
      </trkpt>
      <trkpt lat="44.30903" lon="5.14235">
        <ele>462.53</ele>
        <time>2017-10-02T12:08:52Z</time>
      </trkpt>
      <trkpt lat="44.30893" lon="5.14223">
        <ele>459.65</ele>
        <time>2017-10-02T12:09:10Z</time>
      </trkpt>
      <trkpt lat="44.30887" lon="5.14205">
        <ele>456.76</ele>
        <time>2017-10-02T12:09:28Z</time>
      </trkpt>
      <trkpt lat="44.30882" lon="5.14189">
        <ele>454.84</ele>
        <time>2017-10-02T12:09:44Z</time>
      </trkpt>
      <trkpt lat="44.30872" lon="5.14179">
        <ele>451.96</ele>
        <time>2017-10-02T12:10:00Z</time>
      </trkpt>
      <trkpt lat="44.30863" lon="5.1417">
        <ele>449.55</ele>
        <time>2017-10-02T12:10:17Z</time>
      </trkpt>
      <trkpt lat="44.30852" lon="5.14161">
        <ele>447.15</ele>
        <time>2017-10-02T12:10:34Z</time>
      </trkpt>
      <trkpt lat="44.3084" lon="5.1415">
        <ele>445.23</ele>
        <time>2017-10-02T12:10:51Z</time>
      </trkpt>
      <trkpt lat="44.30828" lon="5.14139">
        <ele>443.79</ele>
        <time>2017-10-02T12:11:08Z</time>
      </trkpt>
      <trkpt lat="44.30816" lon="5.14125">
        <ele>441.38</ele>
        <time>2017-10-02T12:11:26Z</time>
      </trkpt>
      <trkpt lat="44.3081" lon="5.14113">
        <ele>439.94</ele>
        <time>2017-10-02T12:11:40Z</time>
      </trkpt>
      <trkpt lat="44.30804" lon="5.14098">
        <ele>436.58</ele>
        <time>2017-10-02T12:11:55Z</time>
      </trkpt>
      <trkpt lat="44.30797" lon="5.14083">
        <ele>434.17</ele>
        <time>2017-10-02T12:12:11Z</time>
      </trkpt>
      <trkpt lat="44.3079" lon="5.14062">
        <ele>432.73</ele>
        <time>2017-10-02T12:12:27Z</time>
      </trkpt>
      <trkpt lat="44.30783" lon="5.14051">
        <ele>430.81</ele>
        <time>2017-10-02T12:12:41Z</time>
      </trkpt>
      <trkpt lat="44.30773" lon="5.14038">
        <ele>428.4</ele>
        <time>2017-10-02T12:12:57Z</time>
      </trkpt>
      <trkpt lat="44.30763" lon="5.14024">
        <ele>425.52</ele>
        <time>2017-10-02T12:13:14Z</time>
      </trkpt>
      <trkpt lat="44.30754" lon="5.14011">
        <ele>423.12</ele>
        <time>2017-10-02T12:13:31Z</time>
      </trkpt>
      <trkpt lat="44.30745" lon="5.13997">
        <ele>421.19</ele>
        <time>2017-10-02T12:13:48Z</time>
      </trkpt>
      <trkpt lat="44.30733" lon="5.13979">
        <ele>418.31</ele>
        <time>2017-10-02T12:14:07Z</time>
      </trkpt>
      <trkpt lat="44.30718" lon="5.13961">
        <ele>417.35</ele>
        <time>2017-10-02T12:14:26Z</time>
      </trkpt>
      <trkpt lat="44.30703" lon="5.13954">
        <ele>414.95</ele>
        <time>2017-10-02T12:14:43Z</time>
      </trkpt>
      <trkpt lat="44.30685" lon="5.13948">
        <ele>413.5</ele>
        <time>2017-10-02T12:15:00Z</time>
      </trkpt>
      <trkpt lat="44.30682" lon="5.13951">
        <ele>413.5</ele>
        <time>2017-10-02T12:15:16Z</time>
      </trkpt>
      <trkpt lat="44.30679" lon="5.13951">
        <ele>413.5</ele>
        <time>2017-10-02T12:15:29Z</time>
      </trkpt>
      <trkpt lat="44.30679" lon="5.13951">
        <ele>413.98</ele>
        <time>2017-10-02T12:15:44Z</time>
      </trkpt>
      <trkpt lat="44.30675" lon="5.13946">
        <ele>413.02</ele>
        <time>2017-10-02T12:16:04Z</time>
      </trkpt>
      <trkpt lat="44.30658" lon="5.13938">
        <ele>411.58</ele>
        <time>2017-10-02T12:16:23Z</time>
      </trkpt>
      <trkpt lat="44.30648" lon="5.13923">
        <ele>411.1</ele>
        <time>2017-10-02T12:16:39Z</time>
      </trkpt>
      <trkpt lat="44.30645" lon="5.13901">
        <ele>409.66</ele>
        <time>2017-10-02T12:16:54Z</time>
      </trkpt>
      <trkpt lat="44.30645" lon="5.1388">
        <ele>409.18</ele>
        <time>2017-10-02T12:17:09Z</time>
      </trkpt>
      <trkpt lat="44.30643" lon="5.13848">
        <ele>407.26</ele>
        <time>2017-10-02T12:17:31Z</time>
      </trkpt>
      <trkpt lat="44.30644" lon="5.13824">
        <ele>406.29</ele>
        <time>2017-10-02T12:17:47Z</time>
      </trkpt>
      <trkpt lat="44.30641" lon="5.13805">
        <ele>405.33</ele>
        <time>2017-10-02T12:18:00Z</time>
      </trkpt>
      <trkpt lat="44.30626" lon="5.13786">
        <ele>404.37</ele>
        <time>2017-10-02T12:18:18Z</time>
      </trkpt>
      <trkpt lat="44.30613" lon="5.13772">
        <ele>403.41</ele>
        <time>2017-10-02T12:18:35Z</time>
      </trkpt>
      <trkpt lat="44.30596" lon="5.13755">
        <ele>402.93</ele>
        <time>2017-10-02T12:18:54Z</time>
      </trkpt>
      <trkpt lat="44.30582" lon="5.13736">
        <ele>401.49</ele>
        <time>2017-10-02T12:19:10Z</time>
      </trkpt>
      <trkpt lat="44.30564" lon="5.13718">
        <ele>401.01</ele>
        <time>2017-10-02T12:19:31Z</time>
      </trkpt>
      <trkpt lat="44.30548" lon="5.13699">
        <ele>400.05</ele>
        <time>2017-10-02T12:19:50Z</time>
      </trkpt>
      <trkpt lat="44.30536" lon="5.1368">
        <ele>398.6</ele>
        <time>2017-10-02T12:20:08Z</time>
      </trkpt>
      <trkpt lat="44.30534" lon="5.13675">
        <ele>398.12</ele>
        <time>2017-10-02T12:20:11Z</time>
      </trkpt>
      <trkpt lat="44.30519" lon="5.1364">
        <ele>397.64</ele>
        <time>2017-10-02T12:20:36Z</time>
      </trkpt>
      <trkpt lat="44.30505" lon="5.13611">
        <ele>396.2</ele>
        <time>2017-10-02T12:20:59Z</time>
      </trkpt>
      <trkpt lat="44.30504" lon="5.13599">
        <ele>396.2</ele>
        <time>2017-10-02T12:21:08Z</time>
      </trkpt>
      <trkpt lat="44.30511" lon="5.1357">
        <ele>395.24</ele>
        <time>2017-10-02T12:21:29Z</time>
      </trkpt>
      <trkpt lat="44.30509" lon="5.1354">
        <ele>394.28</ele>
        <time>2017-10-02T12:21:49Z</time>
      </trkpt>
      <trkpt lat="44.30496" lon="5.13513">
        <ele>393.32</ele>
        <time>2017-10-02T12:22:10Z</time>
      </trkpt>
      <trkpt lat="44.3048" lon="5.13491">
        <ele>392.36</ele>
        <time>2017-10-02T12:22:30Z</time>
      </trkpt>
      <trkpt lat="44.3046" lon="5.13468">
        <ele>392.36</ele>
        <time>2017-10-02T12:22:53Z</time>
      </trkpt>
      <trkpt lat="44.30451" lon="5.13455">
        <ele>392.36</ele>
        <time>2017-10-02T12:23:07Z</time>
      </trkpt>
      <trkpt lat="44.30432" lon="5.13429">
        <ele>391.87</ele>
        <time>2017-10-02T12:23:32Z</time>
      </trkpt>
      <trkpt lat="44.30414" lon="5.13405">
        <ele>391.39</ele>
        <time>2017-10-02T12:23:55Z</time>
      </trkpt>
      <trkpt lat="44.30398" lon="5.13387">
        <ele>390.91</ele>
        <time>2017-10-02T12:24:14Z</time>
      </trkpt>
      <trkpt lat="44.30382" lon="5.13365">
        <ele>390.43</ele>
        <time>2017-10-02T12:24:34Z</time>
      </trkpt>
      <trkpt lat="44.30368" lon="5.13348">
        <ele>389.47</ele>
        <time>2017-10-02T12:24:50Z</time>
      </trkpt>
      <trkpt lat="44.30351" lon="5.13325">
        <ele>388.51</ele>
        <time>2017-10-02T12:25:11Z</time>
      </trkpt>
      <trkpt lat="44.30334" lon="5.13302">
        <ele>388.03</ele>
        <time>2017-10-02T12:25:32Z</time>
      </trkpt>
      <trkpt lat="44.30317" lon="5.13278">
        <ele>387.07</ele>
        <time>2017-10-02T12:25:55Z</time>
      </trkpt>
      <trkpt lat="44.30305" lon="5.13263">
        <ele>386.59</ele>
        <time>2017-10-02T12:26:11Z</time>
      </trkpt>
      <trkpt lat="44.30295" lon="5.13248">
        <ele>386.59</ele>
        <time>2017-10-02T12:26:28Z</time>
      </trkpt>
      <trkpt lat="44.30284" lon="5.13233">
        <ele>386.11</ele>
        <time>2017-10-02T12:26:42Z</time>
      </trkpt>
      <trkpt lat="44.30269" lon="5.13212">
        <ele>386.11</ele>
        <time>2017-10-02T12:27:02Z</time>
      </trkpt>
      <trkpt lat="44.30266" lon="5.13205">
        <ele>386.11</ele>
        <time>2017-10-02T12:27:08Z</time>
      </trkpt>
      <trkpt lat="44.30269" lon="5.13194">
        <ele>383.22</ele>
        <time>2017-10-02T12:27:23Z</time>
      </trkpt>
      <trkpt lat="44.30269" lon="5.13194">
        <ele>387.07</ele>
        <time>2017-10-02T12:27:24Z</time>
      </trkpt>
      <trkpt lat="44.30269" lon="5.13195">
        <ele>384.66</ele>
        <time>2017-10-02T12:27:45Z</time>
      </trkpt>
      <trkpt lat="44.30269" lon="5.13196">
        <ele>384.66</ele>
        <time>2017-10-02T12:28:07Z</time>
      </trkpt>
      <trkpt lat="44.30269" lon="5.13196">
        <ele>385.63</ele>
        <time>2017-10-02T12:28:11Z</time>
      </trkpt>
      <trkpt lat="44.30271" lon="5.13185">
        <ele>384.18</ele>
        <time>2017-10-02T12:28:33Z</time>
      </trkpt>
      <trkpt lat="44.30279" lon="5.13173">
        <ele>382.26</ele>
        <time>2017-10-02T12:28:53Z</time>
      </trkpt>
      <trkpt lat="44.30283" lon="5.13158">
        <ele>380.82</ele>
        <time>2017-10-02T12:29:12Z</time>
      </trkpt>
      <trkpt lat="44.30286" lon="5.13134">
        <ele>377.94</ele>
        <time>2017-10-02T12:29:32Z</time>
      </trkpt>
      <trkpt lat="44.30288" lon="5.1311">
        <ele>376.49</ele>
        <time>2017-10-02T12:29:51Z</time>
      </trkpt>
      <trkpt lat="44.3029" lon="5.13091">
        <ele>374.09</ele>
        <time>2017-10-02T12:30:07Z</time>
      </trkpt>
      <trkpt lat="44.30291" lon="5.13079">
        <ele>373.13</ele>
        <time>2017-10-02T12:30:22Z</time>
      </trkpt>
      <trkpt lat="44.30295" lon="5.13059">
        <ele>370.73</ele>
        <time>2017-10-02T12:30:39Z</time>
      </trkpt>
      <trkpt lat="44.30294" lon="5.1305">
        <ele>369.76</ele>
        <time>2017-10-02T12:30:56Z</time>
      </trkpt>
      <trkpt lat="44.30293" lon="5.13049">
        <ele>369.28</ele>
        <time>2017-10-02T12:31:17Z</time>
      </trkpt>
      <trkpt lat="44.30288" lon="5.13033">
        <ele>368.8</ele>
        <time>2017-10-02T12:31:35Z</time>
      </trkpt>
      <trkpt lat="44.30284" lon="5.13023">
        <ele>368.32</ele>
        <time>2017-10-02T12:31:51Z</time>
      </trkpt>
      <trkpt lat="44.30278" lon="5.13004">
        <ele>365.92</ele>
        <time>2017-10-02T12:32:08Z</time>
      </trkpt>
      <trkpt lat="44.3027" lon="5.1298">
        <ele>364.96</ele>
        <time>2017-10-02T12:32:26Z</time>
      </trkpt>
      <trkpt lat="44.30261" lon="5.12954">
        <ele>363.52</ele>
        <time>2017-10-02T12:32:46Z</time>
      </trkpt>
      <trkpt lat="44.30252" lon="5.12927">
        <ele>361.59</ele>
        <time>2017-10-02T12:33:06Z</time>
      </trkpt>
      <trkpt lat="44.30246" lon="5.129">
        <ele>358.71</ele>
        <time>2017-10-02T12:33:27Z</time>
      </trkpt>
      <trkpt lat="44.30238" lon="5.12873">
        <ele>357.27</ele>
        <time>2017-10-02T12:33:47Z</time>
      </trkpt>
      <trkpt lat="44.30228" lon="5.12851">
        <ele>355.34</ele>
        <time>2017-10-02T12:34:06Z</time>
      </trkpt>
      <trkpt lat="44.30224" lon="5.12827">
        <ele>354.38</ele>
        <time>2017-10-02T12:34:22Z</time>
      </trkpt>
      <trkpt lat="44.30228" lon="5.12797">
        <ele>354.38</ele>
        <time>2017-10-02T12:34:42Z</time>
      </trkpt>
      <trkpt lat="44.3023" lon="5.12793">
        <ele>353.9</ele>
        <time>2017-10-02T12:34:54Z</time>
      </trkpt>
      <trkpt lat="44.30233" lon="5.12772">
        <ele>353.42</ele>
        <time>2017-10-02T12:35:10Z</time>
      </trkpt>
      <trkpt lat="44.30239" lon="5.12742">
        <ele>351.98</ele>
        <time>2017-10-02T12:35:29Z</time>
      </trkpt>
      <trkpt lat="44.30242" lon="5.12731">
        <ele>351.5</ele>
        <time>2017-10-02T12:35:44Z</time>
      </trkpt>
      <trkpt lat="44.30242" lon="5.1273">
        <ele>351.5</ele>
        <time>2017-10-02T12:35:56Z</time>
      </trkpt>
      <trkpt lat="44.30239" lon="5.12722">
        <ele>351.5</ele>
        <time>2017-10-02T12:36:01Z</time>
      </trkpt>
      <trkpt lat="44.30229" lon="5.12701">
        <ele>351.02</ele>
        <time>2017-10-02T12:36:21Z</time>
      </trkpt>
      <trkpt lat="44.30219" lon="5.12689">
        <ele>350.54</ele>
        <time>2017-10-02T12:36:31Z</time>
      </trkpt>
      <trkpt lat="44.302" lon="5.1268">
        <ele>350.06</ele>
        <time>2017-10-02T12:36:47Z</time>
      </trkpt>
      <trkpt lat="44.3019" lon="5.12674">
        <ele>349.58</ele>
        <time>2017-10-02T12:37:02Z</time>
      </trkpt>
      <trkpt lat="44.30191" lon="5.12677">
        <ele>349.58</ele>
        <time>2017-10-02T12:37:32Z</time>
      </trkpt>
      <trkpt lat="44.30184" lon="5.12681">
        <ele>349.58</ele>
        <time>2017-10-02T12:37:55Z</time>
      </trkpt>
      <trkpt lat="44.3018" lon="5.12684">
        <ele>349.58</ele>
        <time>2017-10-02T12:38:10Z</time>
      </trkpt>
      <trkpt lat="44.3018" lon="5.12685">
        <ele>349.58</ele>
        <time>2017-10-02T12:38:36Z</time>
      </trkpt>
    </trkseg>
  </trk>
</gpx>